PORTS® Data Listing: 8775237 Port Aransas, TX

CO-OPS RAW PORTS DATA

************************      PRELIMINARY DATA      ************************** 

     THIS RAW DATA HAS NOT BEEN SUBJECT TO THE NATIONAL OCEAN SERVICE'S        
     QUALITY CONTROL OR QUALITY ASSURANCE PROCEDURES AND DOES NOT MEET         
     THE CRITERIA AND STANDARDS OF OFFICIAL NATIONAL OCEAN SERVICE             
     DATA.  IT IS RELEASED FOR LIMITED PUBLIC USE AS PRELIMINARY DATA TO       
     BE USED ONLY WITH APPROPRIATE CAUTION.                                    

************************      PRELIMINARY DATA      ************************** 


       CD   -   Calendar date
       T    -   Time
       TZ   -   Timezone
       PW   -   Predicted water level (feet above MLLW)
       OW   -   Observed water level (feet above MLLW)
       WS   -   Wind speed (knots)
       WD   -   Wind direction (degrees true)
       WG   -   Wind gust (knots)
       AT   -   Air temperature (degrees farenheit)
       WT   -   Water temperature (degrees farenheit)
       AP   -   Air pressure (millibars)
       SA   -   Salinty (PSU - Practical Salinity Units)
       SG   -   Specific gravity
       RH   -   Relative humidity
       AG   -   Air gap (feet)
       VI   -   Visibility (nautical miles)

       ** NOTE **
       A variable that has its data fields filled with "9"s, indicates that
       data was not collected for that sample period.
       **********


STATION NAME: Port Aransas (8775237)
****************************************************************************************************
    CD       T    TZ    PW     OW    WS   WD   WG    AT    WT    AP    SA    SG     RH    AG   VI
****************************************************************************************************
2019/11/19 06:42 CST    0.82   1.42    1   18    2  59.7  63.1 1015.4 -9.9 -9.999 -99.9 -99.99 -9.99
2019/11/19 06:48 CST    0.81   1.42    3   40    3  58.8  63.1 1015.4 -9.9 -9.999 -99.9 -99.99 -9.99
2019/11/19 06:54 CST    0.80   1.41    1   33    2  58.8  63.1 1015.4 -9.9 -9.999 -99.9 -99.99 -9.99
2019/11/19 07:00 CST    0.80   1.42    2   34    2  58.8  63.1 1015.5 -9.9 -9.999 -99.9 -99.99 -9.99
2019/11/19 07:06 CST    0.79   1.40    2   35    3  58.8  63.1 1015.6 -9.9 -9.999 -99.9 -99.99 -9.99
2019/11/19 07:12 CST    0.78   1.35    3   35    3  58.6  63.1 1015.7 -9.9 -9.999 -99.9 -99.99 -9.99
2019/11/19 07:18 CST    0.77   1.33    2   32    3  58.6  63.0 1015.7 -9.9 -9.999 -99.9 -99.99 -9.99
2019/11/19 07:24 CST    0.76   1.32    3   33    3  58.8  63.0 1015.8 -9.9 -9.999 -99.9 -99.99 -9.99
2019/11/19 07:30 CST    0.75   1.32    2   45    3  58.5  63.0 1015.9 -9.9 -9.999 -99.9 -99.99 -9.99
2019/11/19 07:36 CST    0.74   1.33    2   43    3  58.5  63.0 1016.0 -9.9 -9.999 -99.9 -99.99 -9.99
2019/11/19 07:42 CST    0.73   1.33    2   39    3  58.8  63.0 1016.0 -9.9 -9.999 -99.9 -99.99 -9.99
2019/11/19 07:48 CST    0.72   1.31    2   49    3  59.2  63.0 1016.1 -9.9 -9.999 -99.9 -99.99 -9.99
2019/11/19 07:54 CST    0.71   1.31    2   42    3  59.7  63.0 1016.2 -9.9 -9.999 -99.9 -99.99 -9.99
2019/11/19 08:00 CST    0.70   1.28    3   42    4  59.9  63.0 1016.2 -9.9 -9.999 -99.9 -99.99 -9.99
2019/11/19 08:06 CST    0.68   1.25    4   42    4  60.1  63.0 1016.1 -9.9 -9.999 -99.9 -99.99 -9.99
2019/11/19 08:12 CST    0.67   1.22    3   44    4  60.4  63.0 1016.2 -9.9 -9.999 -99.9 -99.99 -9.99
2019/11/19 08:18 CST    0.66   1.21    3   46    3  61.0  62.8 1016.2 -9.9 -9.999 -99.9 -99.99 -9.99
2019/11/19 08:24 CST    0.65   1.16    4   42    4  61.3  62.8 1016.2 -9.9 -9.999 -99.9 -99.99 -9.99
2019/11/19 08:30 CST    0.64   1.11    4   39    4  61.5  62.8 1016.2 -9.9 -9.999 -99.9 -99.99 -9.99
2019/11/19 08:36 CST    0.62   1.11    4   35    4  62.1  62.8 1016.2 -9.9 -9.999 -99.9 -99.99 -9.99
2019/11/19 08:42 CST    0.61   1.10    4   36    4  62.6  62.8 1016.2 -9.9 -9.999 -99.9 -99.99 -9.99
2019/11/19 08:48 CST    0.60   1.09    4   41    4  63.0  62.8 1016.2 -9.9 -9.999 -99.9 -99.99 -9.99
2019/11/19 08:54 CST    0.58   1.09    4   49    4  63.5  62.8 1016.2 -9.9 -9.999 -99.9 -99.99 -9.99
2019/11/19 09:00 CST    0.57   1.08    3   55    4  63.7  62.8 1016.2 -9.9 -9.999 -99.9 -99.99 -9.99
2019/11/19 09:06 CST    0.56   1.07 -999 -999 -999 -99.9 -99.9 -999.9 -9.9 -9.999 -99.9 -99.99 -9.99
2019/11/19 09:12 CST    0.54   1.03    4   63    4  64.6  62.8 1016.3 -9.9 -9.999 -99.9 -99.99 -9.99
2019/11/19 09:18 CST    0.53   1.01    5   63    6  64.8  62.8 1016.4 -9.9 -9.999 -99.9 -99.99 -9.99
2019/11/19 09:24 CST    0.52   1.01    6   64    6  65.3  62.8 1016.4 -9.9 -9.999 -99.9 -99.99 -9.99
2019/11/19 09:30 CST    0.50   1.00    6   63    6  65.8  62.8 1016.4 -9.9 -9.999 -99.9 -99.99 -9.99
2019/11/19 09:36 CST    0.49   1.01    5   62    6  66.2  62.8 1016.5 -9.9 -9.999 -99.9 -99.99 -9.99
2019/11/19 09:42 CST    0.48   0.99    6   62    7  66.4  62.8 1016.6 -9.9 -9.999 -99.9 -99.99 -9.99
2019/11/19 09:48 CST    0.46   0.99    5   64    7  66.7  62.8 1016.6 -9.9 -9.999 -99.9 -99.99 -9.99
2019/11/19 09:54 CST    0.45   0.98    5   74    6  67.3  62.8 1016.7 -9.9 -9.999 -99.9 -99.99 -9.99
2019/11/19 10:00 CST    0.44   0.96    5   74    7  67.5  62.8 1016.7 -9.9 -9.999 -99.9 -99.99 -9.99
2019/11/19 10:06 CST    0.42   0.94    6   78    7  67.8  62.8 1016.7 -9.9 -9.999 -99.9 -99.99 -9.99
2019/11/19 10:12 CST    0.41   0.91    4   75    5  68.4  62.8 1016.7 -9.9 -9.999 -99.9 -99.99 -9.99
2019/11/19 10:18 CST    0.40   0.90    5   72    6  68.5  62.6 1016.7 -9.9 -9.999 -99.9 -99.99 -9.99
2019/11/19 10:24 CST    0.38   0.91    4   76    6  69.1  62.6 1016.7 -9.9 -9.999 -99.9 -99.99 -9.99
2019/11/19 10:30 CST    0.37   0.91    4   80    6  69.3  62.6 1016.7 -9.9 -9.999 -99.9 -99.99 -9.99
2019/11/19 10:36 CST    0.36   0.93    5   80    7  69.6  62.6 1016.7 -9.9 -9.999 -99.9 -99.99 -9.99
2019/11/19 10:42 CST    0.34   0.93    5   73    7  69.4  62.6 1016.6 -9.9 -9.999 -99.9 -99.99 -9.99
2019/11/19 10:48 CST    0.33   0.92    5   70    8  69.4  62.6 1016.7 -9.9 -9.999 -99.9 -99.99 -9.99
2019/11/19 10:54 CST    0.31   0.64    5   69    7  69.1  62.6 1016.7 -9.9 -9.999 -99.9 -99.99 -9.99
2019/11/19 11:00 CST    0.30   0.87    5   68    6  69.4  62.6 1016.6 -9.9 -9.999 -99.9 -99.99 -9.99
2019/11/19 11:06 CST    0.29   0.82    6   70    8  69.1  62.6 1016.4 -9.9 -9.999 -99.9 -99.99 -9.99
2019/11/19 11:12 CST    0.27   0.85    5   76    7  69.6  62.6 1016.4 -9.9 -9.999 -99.9 -99.99 -9.99
2019/11/19 11:18 CST    0.26   0.84    5   73    6  69.3  62.6 1016.3 -9.9 -9.999 -99.9 -99.99 -9.99
2019/11/19 11:24 CST    0.24   0.89    5   65    7  69.1  62.6 1016.3 -9.9 -9.999 -99.9 -99.99 -9.99
2019/11/19 11:30 CST    0.23   0.86    6   63    7  69.3  62.6 1016.2 -9.9 -9.999 -99.9 -99.99 -9.99
2019/11/19 11:36 CST    0.22   0.48    7   59    8  69.1  62.6 1016.1 -9.9 -9.999 -99.9 -99.99 -9.99
2019/11/19 11:42 CST    0.20   0.76    6   61    8  69.3  62.6 1016.1 -9.9 -9.999 -99.9 -99.99 -9.99
2019/11/19 11:48 CST    0.19   0.71    6   67    7  69.8  62.6 1016.0 -9.9 -9.999 -99.9 -99.99 -9.99
2019/11/19 11:54 CST    0.18   0.69    6   67    7  69.6  62.6 1015.9 -9.9 -9.999 -99.9 -99.99 -9.99
2019/11/19 12:00 CST    0.17   0.77    5   78    7  70.9  62.6 1015.9 -9.9 -9.999 -99.9 -99.99 -9.99
2019/11/19 12:06 CST    0.16   0.73    5   64    7  69.4  62.6 1015.9 -9.9 -9.999 -99.9 -99.99 -9.99
2019/11/19 12:12 CST    0.14   0.74    5   58    7  69.4  62.6 1015.9 -9.9 -9.999 -99.9 -99.99 -9.99
2019/11/19 12:18 CST    0.13   0.68    5   60    7  70.2  62.6 1015.8 -9.9 -9.999 -99.9 -99.99 -9.99
2019/11/19 12:24 CST    0.12   0.67    4   66    6  69.6  62.6 1015.7 -9.9 -9.999 -99.9 -99.99 -9.99
2019/11/19 12:30 CST    0.11   0.61    6   62    7  69.4  62.6 1015.7 -9.9 -9.999 -99.9 -99.99 -9.99
2019/11/19 12:36 CST    0.11   0.62    7   62    8  70.2  62.6 1015.6 -9.9 -9.999 -99.9 -99.99 -9.99
2019/11/19 12:42 CST    0.10   0.58    7   55    7  70.2  62.6 1015.5 -9.9 -9.999 -99.9 -99.99 -9.99
2019/11/19 12:48 CST    0.09   0.61    6   54    8  70.7  62.6 1015.4 -9.9 -9.999 -99.9 -99.99 -9.99
2019/11/19 12:54 CST    0.09   0.67    6   58    8  70.7  62.6 1015.3 -9.9 -9.999 -99.9 -99.99 -9.99
2019/11/19 13:00 CST    0.08   0.30    7   53    8  70.9  62.6 1015.2 -9.9 -9.999 -99.9 -99.99 -9.99
2019/11/19 13:06 CST    0.08   0.56    6   56    8  70.9  62.6 1015.1 -9.9 -9.999 -99.9 -99.99 -9.99
2019/11/19 13:12 CST    0.07   0.55    6   55    7  70.9  62.6 1015.0 -9.9 -9.999 -99.9 -99.99 -9.99
2019/11/19 13:18 CST    0.07   0.60    7   59    8  70.9  62.6 1014.9 -9.9 -9.999 -99.9 -99.99 -9.99
2019/11/19 13:24 CST    0.07   0.65    7   58    8  70.2  62.6 1014.9 -9.9 -9.999 -99.9 -99.99 -9.99
2019/11/19 13:30 CST    0.06   0.59    7   65    8  70.0  62.8 1014.8 -9.9 -9.999 -99.9 -99.99 -9.99
2019/11/19 13:36 CST    0.06   0.65    7   64    8  70.5  62.6 1014.8 -9.9 -9.999 -99.9 -99.99 -9.99
2019/11/19 13:42 CST    0.06   0.63    6   65    7  70.5  62.8 1014.7 -9.9 -9.999 -99.9 -99.99 -9.99
2019/11/19 13:48 CST    0.06   0.57    6   61    7  70.5  62.8 1014.7 -9.9 -9.999 -99.9 -99.99 -9.99
2019/11/19 13:54 CST    0.06   0.60    5   62    7  70.5  62.8 1014.7 -9.9 -9.999 -99.9 -99.99 -9.99
2019/11/19 14:00 CST    0.06   0.56    5   60    6  71.1  62.8 1014.7 -9.9 -9.999 -99.9 -99.99 -9.99
2019/11/19 14:06 CST    0.06   0.60    5   56    6  71.4  62.8 1014.6 -9.9 -9.999 -99.9 -99.99 -9.99
2019/11/19 14:12 CST    0.07   0.66    6   62    6  71.6  62.8 1014.6 -9.9 -9.999 -99.9 -99.99 -9.99
2019/11/19 14:18 CST    0.07   0.63    6   63    7  71.4  62.8 1014.6 -9.9 -9.999 -99.9 -99.99 -9.99
2019/11/19 14:24 CST    0.07   0.62    7   66    7  71.1  62.8 1014.6 -9.9 -9.999 -99.9 -99.99 -9.99
2019/11/19 14:30 CST    0.07   0.59    7   64    8  70.7  62.8 1014.6 -9.9 -9.999 -99.9 -99.99 -9.99
2019/11/19 14:36 CST    0.08   0.54    6   64    7  71.1  62.8 1014.6 -9.9 -9.999 -99.9 -99.99 -9.99
2019/11/19 14:42 CST    0.08   0.52    7   64    8  71.2  62.8 1014.6 -9.9 -9.999 -99.9 -99.99 -9.99
2019/11/19 14:48 CST    0.09   0.56    7   67    8  70.5  63.0 1014.5 -9.9 -9.999 -99.9 -99.99 -9.99
2019/11/19 14:54 CST    0.09   0.61    7   67    8  70.5  63.0 1014.4 -9.9 -9.999 -99.9 -99.99 -9.99
2019/11/19 15:00 CST    0.10   0.64    8   66    9  69.8  63.0 1014.4 -9.9 -9.999 -99.9 -99.99 -9.99
2019/11/19 15:06 CST    0.10   0.63    8   66    9  69.3  63.0 1014.2 -9.9 -9.999 -99.9 -99.99 -9.99
2019/11/19 15:12 CST    0.11   0.61    8   67    9  69.1  63.0 1014.2 -9.9 -9.999 -99.9 -99.99 -9.99
2019/11/19 15:18 CST    0.12   0.61    8   66   10  68.9  63.0 1014.2 -9.9 -9.999 -99.9 -99.99 -9.99
2019/11/19 15:24 CST    0.12   0.59    8   67    9  69.3  63.1 1014.1 -9.9 -9.999 -99.9 -99.99 -9.99
2019/11/19 15:30 CST    0.13   0.68    9   67   10  68.7  63.1 1014.1 -9.9 -9.999 -99.9 -99.99 -9.99
2019/11/19 15:36 CST    0.14   0.69    9   68   10  68.7  63.1 1014.1 -9.9 -9.999 -99.9 -99.99 -9.99
2019/11/19 15:42 CST    0.15   0.71    9   68   10  68.5  63.1 1014.0 -9.9 -9.999 -99.9 -99.99 -9.99
2019/11/19 15:48 CST    0.16   0.72   10   67   10  68.4  63.3 1014.0 -9.9 -9.999 -99.9 -99.99 -9.99
2019/11/19 15:54 CST    0.17   0.72    9   65   10  68.2  63.3 1014.0 -9.9 -9.999 -99.9 -99.99 -9.99
2019/11/19 16:00 CST    0.18   0.75    9   64   10  68.0  63.3 1014.0 -9.9 -9.999 -99.9 -99.99 -9.99
2019/11/19 16:06 CST    0.20   0.78    8   64    9  67.8  63.3 1014.1 -9.9 -9.999 -99.9 -99.99 -9.99
2019/11/19 16:12 CST    0.21   0.86    8   64    8  67.8  63.3 1014.1 -9.9 -9.999 -99.9 -99.99 -9.99
2019/11/19 16:18 CST    0.22   0.93    8   64    9  67.8  63.5 1014.0 -9.9 -9.999 -99.9 -99.99 -9.99
2019/11/19 16:24 CST    0.23   0.89    8   65    9  67.8  63.5 1014.0 -9.9 -9.999 -99.9 -99.99 -9.99
2019/11/19 16:30 CST    0.25   0.38    8   65    9  67.6  63.5 1014.1 -9.9 -9.999 -99.9 -99.99 -9.99
2019/11/19 16:36 CST    0.26   0.91    8   64   10  67.5  63.7 1014.1 -9.9 -9.999 -99.9 -99.99 -9.99
2019/11/19 16:42 CST    0.27   0.87    9   59   10  67.8  63.7 1014.0 -9.9 -9.999 -99.9 -99.99 -9.99
2019/11/19 16:48 CST    0.29   0.91    8   62   10  67.3  63.7 1014.0 -9.9 -9.999 -99.9 -99.99 -9.99
2019/11/19 16:54 CST    0.30   0.88    8   63    9  67.1  63.7 1013.9 -9.9 -9.999 -99.9 -99.99 -9.99
2019/11/19 17:00 CST    0.32   0.94    9   64   10  66.9  63.7 1013.9 -9.9 -9.999 -99.9 -99.99 -9.99
2019/11/19 17:06 CST    0.33   0.89    8   66   10  66.7  63.7 1013.9 -9.9 -9.999 -99.9 -99.99 -9.99
2019/11/19 17:12 CST    0.35   0.92    7   67    9  66.7  63.7 1014.0 -9.9 -9.999 -99.9 -99.99 -9.99
2019/11/19 17:18 CST    0.36   0.97    7   69    8  66.4  63.7 1014.0 -9.9 -9.999 -99.9 -99.99 -9.99
2019/11/19 17:24 CST    0.38   0.98    7   65    8  66.6  63.7 1014.1 -9.9 -9.999 -99.9 -99.99 -9.99
2019/11/19 17:30 CST    0.40   0.97    6   68    9  66.7  63.7 1014.1 -9.9 -9.999 -99.9 -99.99 -9.99
2019/11/19 17:36 CST    0.41   1.00    6   68    7  66.7  63.7 1014.1 -9.9 -9.999 -99.9 -99.99 -9.99
2019/11/19 17:42 CST    0.43   0.97    6   67    7  66.6  63.7 1014.1 -9.9 -9.999 -99.9 -99.99 -9.99
2019/11/19 17:48 CST    0.44   0.97    5   72    6  66.7  63.7 1014.2 -9.9 -9.999 -99.9 -99.99 -9.99
2019/11/19 17:54 CST    0.46   0.99    5   67    6  66.4  63.7 1014.1 -9.9 -9.999 -99.9 -99.99 -9.99
2019/11/19 18:00 CST    0.47   1.10    5   73    6  66.6  63.9 1014.1 -9.9 -9.999 -99.9 -99.99 -9.99
2019/11/19 18:06 CST    0.49   1.07    3   80    5  66.7  63.9 1014.2 -9.9 -9.999 -99.9 -99.99 -9.99
2019/11/19 18:12 CST    0.51   1.14    3   85    5  67.3  63.9 1014.2 -9.9 -9.999 -99.9 -99.99 -9.99
2019/11/19 18:18 CST    0.52   1.15    3   92    4  67.3  63.9 1014.2 -9.9 -9.999 -99.9 -99.99 -9.99
2019/11/19 18:24 CST    0.54   1.24    3  101    4  67.6  63.9 1014.3 -9.9 -9.999 -99.9 -99.99 -9.99
2019/11/19 18:30 CST    0.55   1.11    4  101    5  67.6  63.9 1014.3 -9.9 -9.999 -99.9 -99.99 -9.99
2019/11/19 18:36 CST    0.57   1.19    3  105    4  67.5  63.7 1014.3 -9.9 -9.999 -99.9 -99.99 -9.99
2019/11/19 18:42 CST    0.59   1.21    3  102    4  67.5  63.7 1014.4 -9.9 -9.999 -99.9 -99.99 -9.99
2019/11/19 18:48 CST    0.60   1.26    3  109    4  67.6  63.7 1014.5 -9.9 -9.999 -99.9 -99.99 -9.99
2019/11/19 18:54 CST    0.62   1.24    3  115    4  67.6  63.7 1014.5 -9.9 -9.999 -99.9 -99.99 -9.99
2019/11/19 19:00 CST    0.63   1.25    4  121    5  68.0  63.7 1014.6 -9.9 -9.999 -99.9 -99.99 -9.99
2019/11/19 19:06 CST    0.65   1.21    3  122    4  68.0  63.7 1014.6 -9.9 -9.999 -99.9 -99.99 -9.99
2019/11/19 19:12 CST    0.66   1.26    3  137    5  68.0  63.7 1014.6 -9.9 -9.999 -99.9 -99.99 -9.99
2019/11/19 19:18 CST    0.68   1.23    3  135    5  68.2  63.7 1014.7 -9.9 -9.999 -99.9 -99.99 -9.99
2019/11/19 19:24 CST    0.69   1.26    3  133    5  68.4  63.7 1014.6 -9.9 -9.999 -99.9 -99.99 -9.99
2019/11/19 19:30 CST    0.70   1.29    5  139    7  68.7  63.7 1014.7 -9.9 -9.999 -99.9 -99.99 -9.99
2019/11/19 19:36 CST    0.72   1.31    5  141    9  68.9  63.3 1014.7 -9.9 -9.999 -99.9 -99.99 -9.99
2019/11/19 19:42 CST    0.73   1.33    5  136    9  69.1  63.1 1014.7 -9.9 -9.999 -99.9 -99.99 -9.99
2019/11/19 19:48 CST    0.74   1.36    6  139    9  69.1  63.0 1014.7 -9.9 -9.999 -99.9 -99.99 -9.99
2019/11/19 19:54 CST    0.76   1.38    5  140    9  69.3  62.8 1014.7 -9.9 -9.999 -99.9 -99.99 -9.99
2019/11/19 20:00 CST    0.77   1.39    4  135    9  69.1  62.8 1014.7 -9.9 -9.999 -99.9 -99.99 -9.99
2019/11/19 20:06 CST    0.78   1.40    5  133    8  68.9  62.8 1014.7 -9.9 -9.999 -99.9 -99.99 -9.99
2019/11/19 20:12 CST    0.79   1.42    4  135    8  68.9  62.8 1014.7 -9.9 -9.999 -99.9 -99.99 -9.99
2019/11/19 20:18 CST    0.80   1.42    5  140    7  68.7  62.8 1014.8 -9.9 -9.999 -99.9 -99.99 -9.99
2019/11/19 20:24 CST    0.81   1.43    4  142    7  68.7  62.8 1014.8 -9.9 -9.999 -99.9 -99.99 -9.99
2019/11/19 20:30 CST    0.82   1.43    4  139    6  68.7  62.8 1014.8 -9.9 -9.999 -99.9 -99.99 -9.99
2019/11/19 20:36 CST    0.82   1.42    4  146    7  68.9  62.8 1014.8 -9.9 -9.999 -99.9 -99.99 -9.99
2019/11/19 20:42 CST    0.83   1.42    4  149    8  69.1  62.8 1014.8 -9.9 -9.999 -99.9 -99.99 -9.99
2019/11/19 20:48 CST    0.84   1.43    3  140    7  69.1  62.8 1014.8 -9.9 -9.999 -99.9 -99.99 -9.99
2019/11/19 20:54 CST    0.85   1.43    4  141    7  68.9  62.8 1014.8 -9.9 -9.999 -99.9 -99.99 -9.99
2019/11/19 21:00 CST    0.85   1.46    4  144    7  68.5  62.8 1014.8 -9.9 -9.999 -99.9 -99.99 -9.99
2019/11/19 21:06 CST    0.86   1.47    5  145   10  68.7  62.6 1014.8 -9.9 -9.999 -99.9 -99.99 -9.99
2019/11/19 21:12 CST    0.86   1.49    5  143    8  68.7  62.6 1014.8 -9.9 -9.999 -99.9 -99.99 -9.99
2019/11/19 21:18 CST    0.87   1.41    4  144    6  68.7  62.6 1014.8 -9.9 -9.999 -99.9 -99.99 -9.99
2019/11/19 21:24 CST    0.87   1.48    4  140    8  68.9  62.4 1014.8 -9.9 -9.999 -99.9 -99.99 -9.99
2019/11/19 21:30 CST    0.88   1.47    5  139    9  69.3  62.4 1014.8 -9.9 -9.999 -99.9 -99.99 -9.99
2019/11/19 21:36 CST    0.88   1.49    5  137    8  69.1  62.4 1014.8 -9.9 -9.999 -99.9 -99.99 -9.99
2019/11/19 21:42 CST    0.89   1.51    6  139    9  69.3  62.4 1014.8 -9.9 -9.999 -99.9 -99.99 -9.99
2019/11/19 21:48 CST    0.89   1.54    4  136    8  68.9  62.4 1014.8 -9.9 -9.999 -99.9 -99.99 -9.99
2019/11/19 21:54 CST    0.90   1.55    4  135    8  68.9  62.6 1014.8 -9.9 -9.999 -99.9 -99.99 -9.99
2019/11/19 22:00 CST    0.90   1.57    5  136    8  68.7  62.6 1014.8 -9.9 -9.999 -99.9 -99.99 -9.99
2019/11/19 22:06 CST    0.90   1.55    5  136    8  68.7  62.6 1014.7 -9.9 -9.999 -99.9 -99.99 -9.99
2019/11/19 22:12 CST    0.91   1.55    5  138   10  68.7  62.6 1014.7 -9.9 -9.999 -99.9 -99.99 -9.99
2019/11/19 22:18 CST    0.91   1.57    5  139    8  69.1  62.6 1014.6 -9.9 -9.999 -99.9 -99.99 -9.99
2019/11/19 22:24 CST    0.92   1.56    5  141   10  69.4  62.6 1014.6 -9.9 -9.999 -99.9 -99.99 -9.99
2019/11/19 22:30 CST    0.92   1.58    6  143    9  69.3  62.6 1014.6 -9.9 -9.999 -99.9 -99.99 -9.99
2019/11/19 22:36 CST    0.92   1.58    6  145   10  69.3  62.8 1014.7 -9.9 -9.999 -99.9 -99.99 -9.99
2019/11/19 22:42 CST    0.93   1.57    5  140    9  69.3  62.8 1014.7 -9.9 -9.999 -99.9 -99.99 -9.99
2019/11/19 22:48 CST    0.93   1.57    6  142   10  69.1  62.8 1014.7 -9.9 -9.999 -99.9 -99.99 -9.99
2019/11/19 22:54 CST    0.93   1.58    6  143   10  69.1  63.0 1014.7 -9.9 -9.999 -99.9 -99.99 -9.99
2019/11/19 23:00 CST    0.94   1.58    5  145    9  69.1  63.0 1014.7 -9.9 -9.999 -99.9 -99.99 -9.99
2019/11/19 23:06 CST    0.94   1.57    4  143    9  69.1  63.0 1014.6 -9.9 -9.999 -99.9 -99.99 -9.99
2019/11/19 23:12 CST    0.94   1.58    4  148    8  68.9  63.1 1014.6 -9.9 -9.999 -99.9 -99.99 -9.99
2019/11/19 23:18 CST    0.94   1.58    4  145    8  69.1  63.1 1014.6 -9.9 -9.999 -99.9 -99.99 -9.99
2019/11/19 23:24 CST    0.94   1.59    5  147    9  69.1  63.3 1014.5 -9.9 -9.999 -99.9 -99.99 -9.99
2019/11/19 23:30 CST    0.95   1.59    5  149    9  69.1  63.3 1014.5 -9.9 -9.999 -99.9 -99.99 -9.99
2019/11/19 23:36 CST    0.95   1.60    5  147    7  68.7  63.5 1014.5 -9.9 -9.999 -99.9 -99.99 -9.99
2019/11/19 23:42 CST    0.95   1.59    5  151    9  68.7  63.5 1014.6 -9.9 -9.999 -99.9 -99.99 -9.99
2019/11/19 23:48 CST    0.95   1.62    4  154    7  68.5  63.5 1014.6 -9.9 -9.999 -99.9 -99.99 -9.99
2019/11/19 23:54 CST    0.95   1.69    4  157    7  68.9  63.7 1014.5 -9.9 -9.999 -99.9 -99.99 -9.99
2019/11/20 00:00 CST    0.95   1.61    5  150   10  68.9  63.7 1014.5 -9.9 -9.999 -99.9 -99.99 -9.99
2019/11/20 00:06 CST    0.95   1.26    4  158    8  68.7  63.7 1014.5 -9.9 -9.999 -99.9 -99.99 -9.99
2019/11/20 00:12 CST    0.95   1.63    4  159    8  68.7  63.9 1014.6 -9.9 -9.999 -99.9 -99.99 -9.99
2019/11/20 00:18 CST    0.95   1.58    5  166    8  68.5  63.9 1014.6 -9.9 -9.999 -99.9 -99.99 -9.99
2019/11/20 00:24 CST    0.95   1.60    5  161    7  68.7  63.9 1014.6 -9.9 -9.999 -99.9 -99.99 -9.99
2019/11/20 00:30 CST    0.95   1.59    5  160    9  68.7  63.9 1014.6 -9.9 -9.999 -99.9 -99.99 -9.99
2019/11/20 00:36 CST    0.95   1.59    5  162    8  68.7  63.9 1014.5 -9.9 -9.999 -99.9 -99.99 -9.99
2019/11/20 00:42 CST    0.95   1.57    6  161    9  68.7  64.0 1014.4 -9.9 -9.999 -99.9 -99.99 -9.99
2019/11/20 00:48 CST    0.95   1.57    4  163    9  68.5  64.0 1014.5 -9.9 -9.999 -99.9 -99.99 -9.99
2019/11/20 00:54 CST    0.96   1.59    5  167    9  68.4  64.0 1014.4 -9.9 -9.999 -99.9 -99.99 -9.99
2019/11/20 01:00 CST    0.96   1.59    4  153    7  68.0  64.0 1014.4 -9.9 -9.999 -99.9 -99.99 -9.99
2019/11/20 01:06 CST    0.96   1.59    4  159    6  67.8  64.2 1014.4 -9.9 -9.999 -99.9 -99.99 -9.99
2019/11/20 01:12 CST    0.96   1.60    4  156    7  68.0  64.2 1014.4 -9.9 -9.999 -99.9 -99.99 -9.99
2019/11/20 01:18 CST    0.96   1.63    4  154    8  68.0  64.2 1014.3 -9.9 -9.999 -99.9 -99.99 -9.99
2019/11/20 01:24 CST    0.96   1.63    3  157    7  68.0  64.2 1014.3 -9.9 -9.999 -99.9 -99.99 -9.99
2019/11/20 01:30 CST    0.96   1.60    4  151    6  68.0  64.2 1014.3 -9.9 -9.999 -99.9 -99.99 -9.99
2019/11/20 01:36 CST    0.97   1.58    4  156    7  68.0  64.2 1014.3 -9.9 -9.999 -99.9 -99.99 -9.99
2019/11/20 01:42 CST    0.97   1.56    3  150    6  68.0  64.2 1014.3 -9.9 -9.999 -99.9 -99.99 -9.99
2019/11/20 01:48 CST    0.97   1.50    2  143    6  68.0  64.4 1014.3 -9.9 -9.999 -99.9 -99.99 -9.99
2019/11/20 01:54 CST    0.97   1.49    4  151    6  68.2  64.4 1014.3 -9.9 -9.999 -99.9 -99.99 -9.99
2019/11/20 02:00 CST    0.97   1.61    3  144    5  68.2  64.4 1014.1 -9.9 -9.999 -99.9 -99.99 -9.99
2019/11/20 02:06 CST    0.97   1.53    4  148    8  68.4  64.4 1014.1 -9.9 -9.999 -99.9 -99.99 -9.99
2019/11/20 02:12 CST    0.98   1.57    4  154    8  68.7  64.4 1014.3 -9.9 -9.999 -99.9 -99.99 -9.99
2019/11/20 02:18 CST    0.98   1.51    4  154    7  68.7  64.4 1014.2 -9.9 -9.999 -99.9 -99.99 -9.99
2019/11/20 02:24 CST    0.98   1.62    5  149   10  69.1  64.4 1014.1 -9.9 -9.999 -99.9 -99.99 -9.99
2019/11/20 02:30 CST    0.98   1.55    5  143    9  69.1  64.4 1014.1 -9.9 -9.999 -99.9 -99.99 -9.99
2019/11/20 02:36 CST    0.98   1.56    6  143    9  69.1  64.4 1013.9 -9.9 -9.999 -99.9 -99.99 -9.99
2019/11/20 02:42 CST    0.98   1.56    5  152    7  69.3  64.4 1014.1 -9.9 -9.999 -99.9 -99.99 -9.99
2019/11/20 02:48 CST    0.97   1.55    5  150    8  69.4  64.4 1014.1 -9.9 -9.999 -99.9 -99.99 -9.99
2019/11/20 02:54 CST    0.97   1.56    5  147    8  69.4  64.4 1014.1 -9.9 -9.999 -99.9 -99.99 -9.99
2019/11/20 03:00 CST    0.97   1.55    4  147   10  69.4  64.4 1014.0 -9.9 -9.999 -99.9 -99.99 -9.99
2019/11/20 03:06 CST    0.97   1.52    6  138    9  69.6  64.4 1013.9 -9.9 -9.999 -99.9 -99.99 -9.99
2019/11/20 03:12 CST    0.97   1.51    4  142    8  69.8  64.4 1013.8 -9.9 -9.999 -99.9 -99.99 -9.99
2019/11/20 03:18 CST    0.96   1.52    5  144    9  69.8  64.6 1013.9 -9.9 -9.999 -99.9 -99.99 -9.99
2019/11/20 03:24 CST    0.96   1.51    6  145   10  69.8  64.6 1013.8 -9.9 -9.999 -99.9 -99.99 -9.99
2019/11/20 03:30 CST    0.95   1.44    6  144   10  70.0  64.6 1013.7 -9.9 -9.999 -99.9 -99.99 -9.99
2019/11/20 03:36 CST    0.95   1.54    5  143    9  69.8  64.6 1013.8 -9.9 -9.999 -99.9 -99.99 -9.99
2019/11/20 03:42 CST    0.95   1.52    4  133    8  69.6  64.6 1013.9 -9.9 -9.999 -99.9 -99.99 -9.99
2019/11/20 03:48 CST    0.94   1.51    4  139    7  69.4  64.6 1013.9 -9.9 -9.999 -99.9 -99.99 -9.99
2019/11/20 03:54 CST    0.94   1.51    5  142    9  69.6  64.6 1013.8 -9.9 -9.999 -99.9 -99.99 -9.99
2019/11/20 04:00 CST    0.93   1.51    4  147   10  69.4  64.6 1013.8 -9.9 -9.999 -99.9 -99.99 -9.99
2019/11/20 04:06 CST    0.93   1.49    3  139    8  69.3  64.6 1013.8 -9.9 -9.999 -99.9 -99.99 -9.99
2019/11/20 04:12 CST    0.92   1.46    5  143    7  69.3  64.6 1013.8 -9.9 -9.999 -99.9 -99.99 -9.99
2019/11/20 04:18 CST    0.92   1.47    5  144   10  69.6  64.6 1013.9 -9.9 -9.999 -99.9 -99.99 -9.99
2019/11/20 04:24 CST    0.91   1.49    5  141    8  69.4  64.6 1013.9 -9.9 -9.999 -99.9 -99.99 -9.99
2019/11/20 04:30 CST    0.91   1.50    4  136    9  69.1  64.6 1013.9 -9.9 -9.999 -99.9 -99.99 -9.99
2019/11/20 04:36 CST    0.91   1.53    4  140    9  69.1  64.6 1013.9 -9.9 -9.999 -99.9 -99.99 -9.99
2019/11/20 04:42 CST    0.90   1.52    6  145   10  69.6  64.6 1014.0 -9.9 -9.999 -99.9 -99.99 -9.99
2019/11/20 04:48 CST    0.90   1.51    4  142   10  69.4  64.6 1014.0 -9.9 -9.999 -99.9 -99.99 -9.99
2019/11/20 04:54 CST    0.89   1.51    5  143   10  69.6  64.6 1014.0 -9.9 -9.999 -99.9 -99.99 -9.99
2019/11/20 05:00 CST    0.89   1.50    6  151    9  69.6  64.6 1014.1 -9.9 -9.999 -99.9 -99.99 -9.99
2019/11/20 05:06 CST    0.88   1.49    5  152   10  69.6  64.6 1014.2 -9.9 -9.999 -99.9 -99.99 -9.99
2019/11/20 05:12 CST    0.88   1.48    5  146   10  69.4  64.6 1014.2 -9.9 -9.999 -99.9 -99.99 -9.99
2019/11/20 05:18 CST    0.87   1.47    5  148    8  69.3  64.6 1014.2 -9.9 -9.999 -99.9 -99.99 -9.99
2019/11/20 05:24 CST    0.87   1.47    4  142    9  69.1  64.6 1014.1 -9.9 -9.999 -99.9 -99.99 -9.99
2019/11/20 05:30 CST    0.86   1.48    5  145    8  69.1  64.6 1014.2 -9.9 -9.999 -99.9 -99.99 -9.99
2019/11/20 05:36 CST    0.86   1.46    4  151    7  69.3  64.6 1014.2 -9.9 -9.999 -99.9 -99.99 -9.99
2019/11/20 05:42 CST    0.86   1.47    5  144    8  69.3  64.6 1014.1 -9.9 -9.999 -99.9 -99.99 -9.99
2019/11/20 05:48 CST    0.85   1.47    6  141    9  69.4  64.6 1014.2 -9.9 -9.999 -99.9 -99.99 -9.99
2019/11/20 05:54 CST    0.85   1.46    5  143    8  69.3  64.6 1014.3 -9.9 -9.999 -99.9 -99.99 -9.99
2019/11/20 06:00 CST    0.84   1.44    5  140    8  69.3  64.6 1014.2 -9.9 -9.999 -99.9 -99.99 -9.99
2019/11/20 06:06 CST    0.84   1.44    5  144    7  69.3  64.6 1014.3 -9.9 -9.999 -99.9 -99.99 -9.99
2019/11/20 06:12 CST    0.83   1.42    5  141    8  69.4  64.6 1014.4 -9.9 -9.999 -99.9 -99.99 -9.99
2019/11/20 06:18 CST    0.83   1.41    5  147    9  69.4  64.6 1014.5 -9.9 -9.999 -99.9 -99.99 -9.99
2019/11/20 06:24 CST    0.83   1.41    5  141    8  69.4  64.6 1014.4 -9.9 -9.999 -99.9 -99.99 -9.99
2019/11/20 06:30 CST    0.82   1.41    5  135    9  69.4  64.6 1014.4 -9.9 -9.999 -99.9 -99.99 -9.99
2019/11/20 06:36 CST    0.82   1.42    6  148    9  69.6  64.8 1014.5 -9.9 -9.999 -99.9 -99.99 -9.99
2019/11/20 06:42 CST    0.82   1.41    5  146    9  69.8  64.8 1014.6 -9.9 -9.999 -99.9 -99.99 -9.99
2019/11/20 06:48 CST    0.81   1.40    6  144   10  70.2  64.8 1014.6 -9.9 -9.999 -99.9 -99.99 -9.99
2019/11/20 06:54 CST    0.81   1.40    6  142    9  70.0  64.8 1014.7 -9.9 -9.999 -99.9 -99.99 -9.99
2019/11/20 07:00 CST    0.81   1.39    7  144   10  70.2  64.8 1014.8 -9.9 -9.999 -99.9 -99.99 -9.99
2019/11/20 07:06 CST    0.80   1.40    6  141   11  70.3  64.8 1014.8 -9.9 -9.999 -99.9 -99.99 -9.99
2019/11/20 07:12 CST    0.80   1.37    6  145   10  70.5  64.8 1014.7 -9.9 -9.999 -99.9 -99.99 -9.99
2019/11/20 07:18 CST    0.80   1.37    6  137   10  70.3  64.8 1014.7 -9.9 -9.999 -99.9 -99.99 -9.99
2019/11/20 07:24 CST    0.80   1.35    6  132   10  70.5  64.8 1014.5 -9.9 -9.999 -99.9 -99.99 -9.99
2019/11/20 07:30 CST    0.79   1.39    5  144   10  70.9  64.8 1014.6 -9.9 -9.999 -99.9 -99.99 -9.99
2019/11/20 07:36 CST    0.79   1.40    5  136   10  71.2  64.8 1014.8 -9.9 -9.999 -99.9 -99.99 -9.99
2019/11/20 07:42 CST    0.79   1.40    5  139   11  71.2  64.8 1014.9 -9.9 -9.999 -99.9 -99.99 -9.99
2019/11/20 07:48 CST    0.79   1.41    5  140    8  71.2  64.8 1014.9 -9.9 -9.999 -99.9 -99.99 -9.99
2019/11/20 07:54 CST    0.78   1.39    5  132    9  71.2  64.8 1014.9 -9.9 -9.999 -99.9 -99.99 -9.99
2019/11/20 08:00 CST    0.78   1.36    5  138   10  71.4  64.8 1014.9 -9.9 -9.999 -99.9 -99.99 -9.99
2019/11/20 08:06 CST    0.78   1.37    6  136   11  71.4  64.8 1015.1 -9.9 -9.999 -99.9 -99.99 -9.99
2019/11/20 08:12 CST    0.77   1.37    6  137    9  71.8  64.8 1015.2 -9.9 -9.999 -99.9 -99.99 -9.99
2019/11/20 08:18 CST    0.77   1.37    7  140   11  72.0  64.8 1015.3 -9.9 -9.999 -99.9 -99.99 -9.99
2019/11/20 08:24 CST    0.76   1.38    5  140   11  72.0  64.8 1015.3 -9.9 -9.999 -99.9 -99.99 -9.99
2019/11/20 08:30 CST    0.76   1.36    6  143   10  72.1  64.8 1015.4 -9.9 -9.999 -99.9 -99.99 -9.99
2019/11/20 08:36 CST    0.75   1.33    7  142   11  72.1  64.8 1015.5 -9.9 -9.999 -99.9 -99.99 -9.99
2019/11/20 08:42 CST    0.75   1.31    4  136   12  72.3  64.8 1015.5 -9.9 -9.999 -99.9 -99.99 -9.99
2019/11/20 08:48 CST    0.74   1.30    8  141   13  72.3  64.8 1015.6 -9.9 -9.999 -99.9 -99.99 -9.99
2019/11/20 08:54 CST    0.74   1.31    6  136   10  72.5  64.8 1015.7 -9.9 -9.999 -99.9 -99.99 -9.99
2019/11/20 09:00 CST    0.73   1.30    6  142   10  72.9  64.8 1015.7 -9.9 -9.999 -99.9 -99.99 -9.99
2019/11/20 09:06 CST    0.72   1.27    8  136   11  72.9  64.8 1015.7 -9.9 -9.999 -99.9 -99.99 -9.99
2019/11/20 09:12 CST    0.71   1.26    7  137   11  73.0  64.8 1015.8 -9.9 -9.999 -99.9 -99.99 -9.99
2019/11/20 09:18 CST    0.70   1.29    7  142   12  73.0  64.8 1015.7 -9.9 -9.999 -99.9 -99.99 -9.99
2019/11/20 09:24 CST    0.70   1.25    7  140   12  73.0  64.8 1015.7 -9.9 -9.999 -99.9 -99.99 -9.99
2019/11/20 09:30 CST    0.69   1.19    8  138   13  73.0  64.8 1015.9 -9.9 -9.999 -99.9 -99.99 -9.99
2019/11/20 09:36 CST    0.68   0.75    6  141   11  73.2  64.8 1016.0 -9.9 -9.999 -99.9 -99.99 -9.99
2019/11/20 09:42 CST    0.67   1.32    6  142   12  73.4  64.8 1016.1 -9.9 -9.999 -99.9 -99.99 -9.99
2019/11/20 09:48 CST    0.66   1.26    8  143   12  73.4  64.8 1016.1 -9.9 -9.999 -99.9 -99.99 -9.99
2019/11/20 09:54 CST    0.65   1.26    7  140   13  73.6  64.8 1016.1 -9.9 -9.999 -99.9 -99.99 -9.99
2019/11/20 10:00 CST    0.64   1.23    7  135   11  73.8  64.8 1016.0 -9.9 -9.999 -99.9 -99.99 -9.99
2019/11/20 10:06 CST    0.63   1.24    7  136   11  74.1  64.8 1016.0 -9.9 -9.999 -99.9 -99.99 -9.99
2019/11/20 10:12 CST    0.62   1.16   10  137   13  73.8  64.8 1016.0 -9.9 -9.999 -99.9 -99.99 -9.99
2019/11/20 10:18 CST    0.60   1.17    6  139   11  73.9  64.8 1016.1 -9.9 -9.999 -99.9 -99.99 -9.99
2019/11/20 10:24 CST    0.59   1.12    7  140   13  73.4  64.8 1016.0 -9.9 -9.999 -99.9 -99.99 -9.99
2019/11/20 10:30 CST    0.58   1.14    5  137   11  73.2  64.8 1015.9 -9.9 -9.999 -99.9 -99.99 -9.99
2019/11/20 10:36 CST    0.57   1.15    5  136   13  73.2  64.9 1015.9 -9.9 -9.999 -99.9 -99.99 -9.99
2019/11/20 10:42 CST    0.56   1.16    7  138   12  74.1  64.9 1015.9 -9.9 -9.999 -99.9 -99.99 -9.99
2019/11/20 10:48 CST    0.55   1.05    8  146   15  74.5  64.9 1015.9 -9.9 -9.999 -99.9 -99.99 -9.99
2019/11/20 10:54 CST    0.54   1.13    9  134   13  74.5  64.9 1015.8 -9.9 -9.999 -99.9 -99.99 -9.99
2019/11/20 11:00 CST    0.53   1.18    9  135   15  74.1  64.9 1015.7 -9.9 -9.999 -99.9 -99.99 -9.99
2019/11/20 11:06 CST    0.52   0.69    8  130   13  73.9  64.9 1015.6 -9.9 -9.999 -99.9 -99.99 -9.99
2019/11/20 11:12 CST    0.50   1.00   10  130   14  74.1  64.9 1015.4 -9.9 -9.999 -99.9 -99.99 -9.99
2019/11/20 11:18 CST    0.49   1.04    8  127   14  74.7  64.9 1015.4 -9.9 -9.999 -99.9 -99.99 -9.99
2019/11/20 11:24 CST    0.48   1.04   11  131   14  74.8  64.9 1015.2 -9.9 -9.999 -99.9 -99.99 -9.99
2019/11/20 11:30 CST    0.47   1.05   11  132   15  74.8  64.9 1015.1 -9.9 -9.999 -99.9 -99.99 -9.99
2019/11/20 11:36 CST    0.46   1.00    8  135   16  75.4  64.9 1015.2 -9.9 -9.999 -99.9 -99.99 -9.99
2019/11/20 11:42 CST    0.44   0.96   10  127   15  75.4  64.9 1015.0 -9.9 -9.999 -99.9 -99.99 -9.99
2019/11/20 11:48 CST    0.43   0.92   10  125   16  75.4  64.9 1014.7 -9.9 -9.999 -99.9 -99.99 -9.99
2019/11/20 11:54 CST    0.42   0.98   10  130   16  75.0  64.9 1014.7 -9.9 -9.999 -99.9 -99.99 -9.99
2019/11/20 12:00 CST    0.41   0.87   11  127   15  75.0  64.9 1014.6 -9.9 -9.999 -99.9 -99.99 -9.99
2019/11/20 12:06 CST    0.39   0.91    9  123   15  75.2  64.9 1014.5 -9.9 -9.999 -99.9 -99.99 -9.99
2019/11/20 12:12 CST    0.38   0.91   11  124   15  74.5  64.9 1014.5 -9.9 -9.999 -99.9 -99.99 -9.99
2019/11/20 12:18 CST    0.37   0.92   10  123   17  74.5  64.9 1014.5 -9.9 -9.999 -99.9 -99.99 -9.99
2019/11/20 12:24 CST    0.35   0.86   10  122   15  74.8  64.9 1014.5 -9.9 -9.999 -99.9 -99.99 -9.99
2019/11/20 12:30 CST    0.34   0.87   10  125   16  75.2  64.9 1014.4 -9.9 -9.999 -99.9 -99.99 -9.99
2019/11/20 12:36 CST    0.33   0.86   10  126   15  75.2  64.9 1014.2 -9.9 -9.999 -99.9 -99.99 -9.99
2019/11/20 12:42 CST    0.32   0.81    8  129   14  75.4  64.9 1014.0 -9.9 -9.999 -99.9 -99.99 -9.99
2019/11/20 12:48 CST    0.31   0.79   12  122   15  75.0  64.9 1013.8 -9.9 -9.999 -99.9 -99.99 -9.99
2019/11/20 12:54 CST    0.30   0.78   11  129   16  75.0  64.9 1013.7 -9.9 -9.999 -99.9 -99.99 -9.99
2019/11/20 13:00 CST    0.29   0.79   11  125   16  75.0  64.9 1013.6 -9.9 -9.999 -99.9 -99.99 -9.99
2019/11/20 13:06 CST    0.28   0.80   10  125   17  75.0  64.9 1013.6 -9.9 -9.999 -99.9 -99.99 -9.99
2019/11/20 13:12 CST    0.27   0.80   11  125   17  74.7  64.9 1013.5 -9.9 -9.999 -99.9 -99.99 -9.99
2019/11/20 13:18 CST    0.26   0.80   11  127   17  74.8  64.9 1013.4 -9.9 -9.999 -99.9 -99.99 -9.99
2019/11/20 13:24 CST    0.25   0.80   11  124   16  74.8  64.9 1013.3 -9.9 -9.999 -99.9 -99.99 -9.99
2019/11/20 13:30 CST    0.24   0.78   11  118   16  75.0  64.9 1013.2 -9.9 -9.999 -99.9 -99.99 -9.99
2019/11/20 13:36 CST    0.24   0.76   10  121   15  75.0  64.9 1013.2 -9.9 -9.999 -99.9 -99.99 -9.99
2019/11/20 13:42 CST    0.23   0.74    9  124   13  75.2  64.9 1013.3 -9.9 -9.999 -99.9 -99.99 -9.99
2019/11/20 13:48 CST    0.22   0.75   11  123   16  75.0  64.8 1013.2 -9.9 -9.999 -99.9 -99.99 -9.99
2019/11/20 13:54 CST    0.22   0.78    9  119   13  75.2  64.8 1013.1 -9.9 -9.999 -99.9 -99.99 -9.99
2019/11/20 14:00 CST    0.21   0.58   11  118   16  74.8  64.8 1013.0 -9.9 -9.999 -99.9 -99.99 -9.99
2019/11/20 14:06 CST    0.21   0.78   10  122   16  74.8  64.8 1013.1 -9.9 -9.999 -99.9 -99.99 -9.99
2019/11/20 14:12 CST    0.21   0.71    6  133   12  75.0  64.8 1013.2 -9.9 -9.999 -99.9 -99.99 -9.99
2019/11/20 14:18 CST    0.20   0.71   10  124   15  74.8  64.8 1013.1 -9.9 -9.999 -99.9 -99.99 -9.99
2019/11/20 14:24 CST    0.20   0.75   10  123   15  75.0  64.8 1013.0 -9.9 -9.999 -99.9 -99.99 -9.99
2019/11/20 14:30 CST    0.20   0.73   10  122   14  74.7  64.8 1013.0 -9.9 -9.999 -99.9 -99.99 -9.99
2019/11/20 14:36 CST    0.20   0.73   11  127   15  74.7  64.8 1013.0 -9.9 -9.999 -99.9 -99.99 -9.99
2019/11/20 14:42 CST    0.20   0.73    8  123   14  75.0  64.8 1012.9 -9.9 -9.999 -99.9 -99.99 -9.99
2019/11/20 14:48 CST    0.20   0.72   11  123   14  74.8  64.8 1012.9 -9.9 -9.999 -99.9 -99.99 -9.99
2019/11/20 14:54 CST    0.19   0.75    9  126   14  74.7  64.8 1012.8 -9.9 -9.999 -99.9 -99.99 -9.99
2019/11/20 15:00 CST    0.19   0.74    9  122   14  74.8  64.8 1012.8 -9.9 -9.999 -99.9 -99.99 -9.99
2019/11/20 15:06 CST    0.19   0.73    8  122   14  74.8  64.8 1012.8 -9.9 -9.999 -99.9 -99.99 -9.99
2019/11/20 15:12 CST    0.19   0.73    9  123   14  74.8  64.8 1012.8 -9.9 -9.999 -99.9 -99.99 -9.99
2019/11/20 15:18 CST    0.19   0.74    9  120   12  74.7  64.8 1012.8 -9.9 -9.999 -99.9 -99.99 -9.99
2019/11/20 15:24 CST    0.20   0.76    9  124   13  74.5  64.8 1012.8 -9.9 -9.999 -99.9 -99.99 -9.99
2019/11/20 15:30 CST    0.20   0.85   10  121   13  74.3  64.8 1012.7 -9.9 -9.999 -99.9 -99.99 -9.99
2019/11/20 15:36 CST    0.20   0.68    9  118   16  74.5  64.8 1012.7 -9.9 -9.999 -99.9 -99.99 -9.99
2019/11/20 15:42 CST    0.20   0.70    8  123   12  74.3  64.9 1012.7 -9.9 -9.999 -99.9 -99.99 -9.99
2019/11/20 15:48 CST    0.20   0.78    9  126   13  73.9  64.9 1012.7 -9.9 -9.999 -99.9 -99.99 -9.99
2019/11/20 15:54 CST    0.20   0.82   10  125   12  73.9  64.9 1012.8 -9.9 -9.999 -99.9 -99.99 -9.99
2019/11/20 16:00 CST    0.21   0.90    9  126   13  73.9  64.9 1012.8 -9.9 -9.999 -99.9 -99.99 -9.99
2019/11/20 16:06 CST    0.21   0.45   10  125   13  73.8  64.9 1012.9 -9.9 -9.999 -99.9 -99.99 -9.99
2019/11/20 16:12 CST    0.21   0.76    9  127   11  73.9  64.9 1012.9 -9.9 -9.999 -99.9 -99.99 -9.99
2019/11/20 16:18 CST    0.22   0.78    8  125   13  73.8  64.9 1013.0 -9.9 -9.999 -99.9 -99.99 -9.99
2019/11/20 16:24 CST    0.22   0.83    8  124   12  73.4  64.9 1013.0 -9.9 -9.999 -99.9 -99.99 -9.99
2019/11/20 16:30 CST    0.23   0.88    8  129   12  73.0  64.9 1013.2 -9.9 -9.999 -99.9 -99.99 -9.99
2019/11/20 16:36 CST    0.23   0.84    8  131   10  73.2  64.9 1013.2 -9.9 -9.999 -99.9 -99.99 -9.99
2019/11/20 16:42 CST    0.24   0.80    7  128   11  72.9  64.9 1013.2 -9.9 -9.999 -99.9 -99.99 -9.99
2019/11/20 16:48 CST    0.25   0.83    6  128   11  72.5  64.9 1013.3 -9.9 -9.999 -99.9 -99.99 -9.99
2019/11/20 16:54 CST    0.26   0.81    8  124   11  72.3  64.9 1013.3 -9.9 -9.999 -99.9 -99.99 -9.99
2019/11/20 17:00 CST    0.26   0.90    7  125   10  72.0  64.9 1013.4 -9.9 -9.999 -99.9 -99.99 -9.99
2019/11/20 17:06 CST    0.27   0.93    7  130   11  72.0  64.9 1013.3 -9.9 -9.999 -99.9 -99.99 -9.99
2019/11/20 17:12 CST    0.28   0.86    7  131   11  71.8  64.9 1013.3 -9.9 -9.999 -99.9 -99.99 -9.99
2019/11/20 17:18 CST    0.29   0.86    7  127   10  71.8  64.9 1013.2 -9.9 -9.999 -99.9 -99.99 -9.99
2019/11/20 17:24 CST    0.30   0.84    7  125   11  71.8  64.9 1013.2 -9.9 -9.999 -99.9 -99.99 -9.99
2019/11/20 17:30 CST    0.31   0.76    7  122   10  71.2  64.9 1013.2 -9.9 -9.999 -99.9 -99.99 -9.99
2019/11/20 17:36 CST    0.32   0.84    9  128   12  71.1  64.9 1013.2 -9.9 -9.999 -99.9 -99.99 -9.99
2019/11/20 17:42 CST    0.33   0.89    8  126   11  71.1  65.1 1013.1 -9.9 -9.999 -99.9 -99.99 -9.99
2019/11/20 17:48 CST    0.35   0.87    7  128   11  71.4  65.1 1013.1 -9.9 -9.999 -99.9 -99.99 -9.99
2019/11/20 17:54 CST    0.36   0.79    6  133   11  71.6  65.1 1013.2 -9.9 -9.999 -99.9 -99.99 -9.99
2019/11/20 18:00 CST    0.37   0.96    5  132   12  71.6  65.1 1013.1 -9.9 -9.999 -99.9 -99.99 -9.99
2019/11/20 18:06 CST    0.38   1.00    7  131   11  71.4  65.1 1013.2 -9.9 -9.999 -99.9 -99.99 -9.99
2019/11/20 18:12 CST    0.40   1.00    5  136   11  71.4  65.1 1013.3 -9.9 -9.999 -99.9 -99.99 -9.99
2019/11/20 18:18 CST    0.41   1.01    7  134   10  71.2  65.1 1013.2 -9.9 -9.999 -99.9 -99.99 -9.99
2019/11/20 18:24 CST    0.42   1.02    6  132   10  71.2  65.1 1013.3 -9.9 -9.999 -99.9 -99.99 -9.99
2019/11/20 18:30 CST    0.44   0.96    7  132   11  71.4  65.1 1013.5 -9.9 -9.999 -99.9 -99.99 -9.99
2019/11/20 18:36 CST    0.45   0.99    6  134   13  71.4  64.9 1013.5 -9.9 -9.999 -99.9 -99.99 -9.99
2019/11/20 18:42 CST    0.46   1.07    6  135   10  71.2  64.9 1013.5 -9.9 -9.999 -99.9 -99.99 -9.99
2019/11/20 18:48 CST    0.48   1.08    6  138   11  71.1  64.9 1013.6 -9.9 -9.999 -99.9 -99.99 -9.99
2019/11/20 18:54 CST    0.49   1.04    5  137   11  71.1  64.9 1013.6 -9.9 -9.999 -99.9 -99.99 -9.99
2019/11/20 19:00 CST    0.51   1.06    6  132   10  70.9  64.9 1013.6 -9.9 -9.999 -99.9 -99.99 -9.99
2019/11/20 19:06 CST    0.52   1.18    5  137    8  70.7  64.9 1013.8 -9.9 -9.999 -99.9 -99.99 -9.99
2019/11/20 19:12 CST    0.54   1.15    5  134    9  70.7  64.9 1013.9 -9.9 -9.999 -99.9 -99.99 -9.99
2019/11/20 19:18 CST    0.55   1.19    6  145   10  71.1  64.9 1013.9 -9.9 -9.999 -99.9 -99.99 -9.99
2019/11/20 19:24 CST    0.57   1.17    6  141    8  71.2  64.9 1014.0 -9.9 -9.999 -99.9 -99.99 -9.99
2019/11/20 19:30 CST    0.58   1.25    5  135   10  71.1  64.9 1014.0 -9.9 -9.999 -99.9 -99.99 -9.99
2019/11/20 19:36 CST    0.60   1.18    5  133    9  70.9  64.9 1013.9 -9.9 -9.999 -99.9 -99.99 -9.99
2019/11/20 19:42 CST    0.61   1.27    6  139    9  71.2  64.9 1013.9 -9.9 -9.999 -99.9 -99.99 -9.99
2019/11/20 19:48 CST    0.63   1.27    5  147    9  71.4  64.9 1014.0 -9.9 -9.999 -99.9 -99.99 -9.99
2019/11/20 19:54 CST    0.64   1.30    6  146   11  71.4  64.9 1014.0 -9.9 -9.999 -99.9 -99.99 -9.99
2019/11/20 20:00 CST    0.66   1.30    6  147   11  71.4  64.9 1014.0 -9.9 -9.999 -99.9 -99.99 -9.99
2019/11/20 20:06 CST    0.67   1.32    7  151   11  71.4  64.9 1014.2 -9.9 -9.999 -99.9 -99.99 -9.99
2019/11/20 20:12 CST    0.69   1.34    5  147    9  71.2  64.9 1014.2 -9.9 -9.999 -99.9 -99.99 -9.99
2019/11/20 20:18 CST    0.70   1.39    5  148    9  71.1  64.9 1014.3 -9.9 -9.999 -99.9 -99.99 -9.99
2019/11/20 20:24 CST    0.71   1.41    4  151    8  70.9  64.9 1014.4 -9.9 -9.999 -99.9 -99.99 -9.99
2019/11/20 20:30 CST    0.73   1.47    5  143    8  70.9  64.9 1014.4 -9.9 -9.999 -99.9 -99.99 -9.99
2019/11/20 20:36 CST    0.74   1.38    5  142    8  70.9  65.1 1014.4 -9.9 -9.999 -99.9 -99.99 -9.99
2019/11/20 20:42 CST    0.75   1.43    5  150    8  70.7  65.1 1014.5 -9.9 -9.999 -99.9 -99.99 -9.99
2019/11/20 20:48 CST    0.76   1.48    4  151    6  70.7  65.1 1014.7 -9.9 -9.999 -99.9 -99.99 -9.99
2019/11/20 20:54 CST    0.77   1.43    4  147    6  70.7  65.1 1014.8 -9.9 -9.999 -99.9 -99.99 -9.99
2019/11/20 21:00 CST    0.78   1.42    4  154    6  70.9  65.1 1015.0 -9.9 -9.999 -99.9 -99.99 -9.99
2019/11/20 21:06 CST    0.79   1.41    3  160    5  70.7  65.1 1015.1 -9.9 -9.999 -99.9 -99.99 -9.99
2019/11/20 21:12 CST    0.80   1.52    2  144    5  70.7  65.1 1015.1 -9.9 -9.999 -99.9 -99.99 -9.99
2019/11/20 21:18 CST    0.81   1.46    3  153    6  70.9  65.1 1015.3 -9.9 -9.999 -99.9 -99.99 -9.99
2019/11/20 21:24 CST    0.82   1.48    3  166    6  70.9  65.1 1015.3 -9.9 -9.999 -99.9 -99.99 -9.99
2019/11/20 21:30 CST    0.82   1.46    4  150    7  70.9  65.1 1015.2 -9.9 -9.999 -99.9 -99.99 -9.99
2019/11/20 21:36 CST    0.83   1.51    4  143    7  70.5  65.1 1015.1 -9.9 -9.999 -99.9 -99.99 -9.99
2019/11/20 21:42 CST    0.83   1.46    3  147    7  70.5  65.1 1015.1 -9.9 -9.999 -99.9 -99.99 -9.99
2019/11/20 21:48 CST    0.84   1.52    4  158    6  70.5  65.1 1015.1 -9.9 -9.999 -99.9 -99.99 -9.99
2019/11/20 21:54 CST    0.84   1.50    5  159    7  70.5  65.1 1015.1 -9.9 -9.999 -99.9 -99.99 -9.99
2019/11/20 22:00 CST    0.85   1.50    4  159    7  70.5  65.1 1015.2 -9.9 -9.999 -99.9 -99.99 -9.99
2019/11/20 22:06 CST    0.85   1.50    4  168    6  70.5  65.1 1015.2 -9.9 -9.999 -99.9 -99.99 -9.99
2019/11/20 22:12 CST    0.85   1.50    4  157    7  70.7  65.1 1015.1 -9.9 -9.999 -99.9 -99.99 -9.99
2019/11/20 22:18 CST    0.85   1.52    4  153    7  70.5  65.1 1015.1 -9.9 -9.999 -99.9 -99.99 -9.99
2019/11/20 22:24 CST    0.86   1.53    4  152    8  70.3  65.1 1015.1 -9.9 -9.999 -99.9 -99.99 -9.99
2019/11/20 22:30 CST    0.86   1.55    5  154    8  70.2  65.1 1015.0 -9.9 -9.999 -99.9 -99.99 -9.99
2019/11/20 22:36 CST    0.86   1.53    5  157    8  70.0  65.1 1015.1 -9.9 -9.999 -99.9 -99.99 -9.99
2019/11/20 22:42 CST    0.86   1.53    4  146    8  70.0  65.1 1014.9 -9.9 -9.999 -99.9 -99.99 -9.99
2019/11/20 22:48 CST    0.86   1.52    5  153    8  70.0  65.1 1014.9 -9.9 -9.999 -99.9 -99.99 -9.99
2019/11/20 22:54 CST    0.87   1.51    4  148    9  70.0  65.1 1014.9 -9.9 -9.999 -99.9 -99.99 -9.99
2019/11/20 23:00 CST    0.87   1.50    3  144    7  70.0  65.1 1014.8 -9.9 -9.999 -99.9 -99.99 -9.99
2019/11/20 23:06 CST    0.87   1.50    3  138    7  69.8  65.1 1014.8 -9.9 -9.999 -99.9 -99.99 -9.99
2019/11/20 23:12 CST    0.87   1.53    4  146    8  69.6  65.1 1014.8 -9.9 -9.999 -99.9 -99.99 -9.99
2019/11/20 23:18 CST    0.87   1.53    4  151    7  70.0  65.1 1014.8 -9.9 -9.999 -99.9 -99.99 -9.99
2019/11/20 23:24 CST    0.87   1.55    5  151   10  70.0  65.1 1014.9 -9.9 -9.999 -99.9 -99.99 -9.99
2019/11/20 23:30 CST    0.87   1.56    5  156    8  70.0  65.3 1014.9 -9.9 -9.999 -99.9 -99.99 -9.99
2019/11/20 23:36 CST    0.87   1.57    4  157    9  69.8  65.3 1014.9 -9.9 -9.999 -99.9 -99.99 -9.99
2019/11/20 23:42 CST    0.87   1.58    5  153    8  69.8  65.3 1014.7 -9.9 -9.999 -99.9 -99.99 -9.99
2019/11/20 23:48 CST    0.87   1.58    4  152    8  69.8  65.3 1014.8 -9.9 -9.999 -99.9 -99.99 -9.99
2019/11/20 23:54 CST    0.87   1.56    5  150    8  70.0  65.3 1014.6 -9.9 -9.999 -99.9 -99.99 -9.99
2019/11/21 00:00 CST    0.87   1.55    5  150    9  70.0  65.3 1014.5 -9.9 -9.999 -99.9 -99.99 -9.99
2019/11/21 00:06 CST    0.87   1.54    7  147   10  70.3  65.3 1014.4 -9.9 -9.999 -99.9 -99.99 -9.99
2019/11/21 00:12 CST    0.87   1.57    6  145   11  70.5  65.3 1014.3 -9.9 -9.999 -99.9 -99.99 -9.99
2019/11/21 00:18 CST    0.86   1.56    8  148   12  70.7  65.3 1014.1 -9.9 -9.999 -99.9 -99.99 -9.99
2019/11/21 00:24 CST    0.86   1.57    7  137   13  70.2  65.3 1014.0 -9.9 -9.999 -99.9 -99.99 -9.99
2019/11/21 00:30 CST    0.86   1.57    6  149   12  70.3  65.5 1014.0 -9.9 -9.999 -99.9 -99.99 -9.99
2019/11/21 00:36 CST    0.86   1.56    7  150   11  70.5  65.5 1014.0 -9.9 -9.999 -99.9 -99.99 -9.99
2019/11/21 00:42 CST    0.86   1.56    6  158   11  70.5  65.5 1014.2 -9.9 -9.999 -99.9 -99.99 -9.99
2019/11/21 00:48 CST    0.85   1.55    7  160   11  70.3  65.5 1014.2 -9.9 -9.999 -99.9 -99.99 -9.99
2019/11/21 00:54 CST    0.85   1.55    6  163    9  70.3  65.5 1014.1 -9.9 -9.999 -99.9 -99.99 -9.99
2019/11/21 01:00 CST    0.85   1.56    7  155   11  70.5  65.5 1013.9 -9.9 -9.999 -99.9 -99.99 -9.99
2019/11/21 01:06 CST    0.85   1.58    6  155   12  70.5  65.5 1013.8 -9.9 -9.999 -99.9 -99.99 -9.99
2019/11/21 01:12 CST    0.85   1.57    5  169   10  70.5  65.7 1014.0 -9.9 -9.999 -99.9 -99.99 -9.99
2019/11/21 01:18 CST    0.84   1.58    6  164   10  70.7  65.7 1014.1 -9.9 -9.999 -99.9 -99.99 -9.99
2019/11/21 01:24 CST    0.84   1.58    6  159   11  70.5  65.7 1014.1 -9.9 -9.999 -99.9 -99.99 -9.99
2019/11/21 01:30 CST    0.84   1.56    7  159   12  70.3  65.7 1014.0 -9.9 -9.999 -99.9 -99.99 -9.99
2019/11/21 01:36 CST    0.84   1.56    5  155   10  70.3  65.7 1014.1 -9.9 -9.999 -99.9 -99.99 -9.99
2019/11/21 01:42 CST    0.84   1.56    4  162    9  70.3  65.7 1014.3 -9.9 -9.999 -99.9 -99.99 -9.99
2019/11/21 01:48 CST    0.84   1.55    5  190    8  70.2  65.7 1014.5 -9.9 -9.999 -99.9 -99.99 -9.99
2019/11/21 01:54 CST    0.84   1.57    6  172   11  70.3  65.7 1014.4 -9.9 -9.999 -99.9 -99.99 -9.99
2019/11/21 02:00 CST    0.84   1.57    7  172   10  70.3  65.8 1014.6 -9.9 -9.999 -99.9 -99.99 -9.99
2019/11/21 02:06 CST    0.83   1.58    4  190    9  70.3  65.8 1014.8 -9.9 -9.999 -99.9 -99.99 -9.99
2019/11/21 02:12 CST    0.83   1.58    3  200    6  70.5  65.8 1015.0 -9.9 -9.999 -99.9 -99.99 -9.99
2019/11/21 02:18 CST    0.83   1.59    1  232    6  70.3  65.8 1015.2 -9.9 -9.999 -99.9 -99.99 -9.99
2019/11/21 02:24 CST    0.83   1.60    2  242    4  70.3  65.8 1015.3 -9.9 -9.999 -99.9 -99.99 -9.99
2019/11/21 02:30 CST    0.83   1.60    1  220    3  70.2  65.8 1015.3 -9.9 -9.999 -99.9 -99.99 -9.99
2019/11/21 02:36 CST    0.83   1.59    2  223    3  70.2  65.8 1015.4 -9.9 -9.999 -99.9 -99.99 -9.99
2019/11/21 02:42 CST    0.83   1.58    2  202    3  70.3  65.8 1015.4 -9.9 -9.999 -99.9 -99.99 -9.99
2019/11/21 02:48 CST    0.83   1.57    1  232    3  70.2  65.8 1015.4 -9.9 -9.999 -99.9 -99.99 -9.99
2019/11/21 02:54 CST    0.83   1.56    0  208    2  70.0  65.8 1015.3 -9.9 -9.999 -99.9 -99.99 -9.99
2019/11/21 03:00 CST    0.83   1.56    1  203    2  70.0  65.8 1015.3 -9.9 -9.999 -99.9 -99.99 -9.99
2019/11/21 03:06 CST    0.83   1.54    2  216    3  70.2  65.8 1015.1 -9.9 -9.999 -99.9 -99.99 -9.99
2019/11/21 03:12 CST    0.83   1.55    2  207    3  69.8  65.8 1014.9 -9.9 -9.999 -99.9 -99.99 -9.99
2019/11/21 03:18 CST    0.83   1.55    2  139    3  69.8  66.0 1014.8 -9.9 -9.999 -99.9 -99.99 -9.99
2019/11/21 03:24 CST    0.82   1.53    3  168    5  70.2  66.0 1014.7 -9.9 -9.999 -99.9 -99.99 -9.99
2019/11/21 03:30 CST    0.82   1.52    3  194    6  70.3  66.0 1014.6 -9.9 -9.999 -99.9 -99.99 -9.99
2019/11/21 03:36 CST    0.82   1.51    3  150    6  70.3  66.0 1014.5 -9.9 -9.999 -99.9 -99.99 -9.99
2019/11/21 03:42 CST    0.82   1.51    2  159    4  70.5  66.0 1014.5 -9.9 -9.999 -99.9 -99.99 -9.99
2019/11/21 03:48 CST    0.81   1.50    4  153    6  70.3  66.0 1014.5 -9.9 -9.999 -99.9 -99.99 -9.99
2019/11/21 03:54 CST    0.81   1.48    4  129    6  70.2  66.0 1014.2 -9.9 -9.999 -99.9 -99.99 -9.99
2019/11/21 04:00 CST    0.80   1.46    4  146    6  70.2  66.0 1014.2 -9.9 -9.999 -99.9 -99.99 -9.99
2019/11/21 04:06 CST    0.80   1.45    4  132    6  70.2  66.0 1014.1 -9.9 -9.999 -99.9 -99.99 -9.99
2019/11/21 04:12 CST    0.80   1.42    4  150    7  70.3  66.0 1014.0 -9.9 -9.999 -99.9 -99.99 -9.99
2019/11/21 04:18 CST    0.79   1.42    3  138    7  70.2  66.0 1013.9 -9.9 -9.999 -99.9 -99.99 -9.99
2019/11/21 04:24 CST    0.79   1.42    3  140    5  70.0  66.0 1014.0 -9.9 -9.999 -99.9 -99.99 -9.99
2019/11/21 04:30 CST    0.78   1.41    5  146    6  69.8  66.0 1013.9 -9.9 -9.999 -99.9 -99.99 -9.99
2019/11/21 04:36 CST    0.78   1.41    4  141    6  69.6  66.0 1013.8 -9.9 -9.999 -99.9 -99.99 -9.99
2019/11/21 04:42 CST    0.77   1.42    3  135    6  69.3  66.0 1013.7 -9.9 -9.999 -99.9 -99.99 -9.99
2019/11/21 04:48 CST    0.77   1.44    5  143    8  69.4  66.0 1013.6 -9.9 -9.999 -99.9 -99.99 -9.99
2019/11/21 04:54 CST    0.76   1.48    5  146    9  69.6  66.0 1013.6 -9.9 -9.999 -99.9 -99.99 -9.99
2019/11/21 05:00 CST    0.76   1.50    4  153    7  69.6  66.0 1013.7 -9.9 -9.999 -99.9 -99.99 -9.99
2019/11/21 05:06 CST    0.75   1.19    4  163    7  69.4  66.0 1013.8 -9.9 -9.999 -99.9 -99.99 -9.99
2019/11/21 05:12 CST    0.75   1.51    4  144    7  69.4  66.0 1013.6 -9.9 -9.999 -99.9 -99.99 -9.99
2019/11/21 05:18 CST    0.75   1.42    5  152    8  69.6  66.0 1013.5 -9.9 -9.999 -99.9 -99.99 -9.99
2019/11/21 05:24 CST    0.74   1.41    4  150    7  69.8  66.0 1013.7 -9.9 -9.999 -99.9 -99.99 -9.99
2019/11/21 05:30 CST    0.74   1.41    4  152    7  69.8  66.0 1013.8 -9.9 -9.999 -99.9 -99.99 -9.99
2019/11/21 05:36 CST    0.74   1.43    4  138    7  69.6  66.0 1013.7 -9.9 -9.999 -99.9 -99.99 -9.99
2019/11/21 05:42 CST    0.73   1.43    4  137    8  69.4  66.0 1013.8 -9.9 -9.999 -99.9 -99.99 -9.99
2019/11/21 05:48 CST    0.73   1.42    4  140    7  69.6  66.0 1013.8 -9.9 -9.999 -99.9 -99.99 -9.99
2019/11/21 05:54 CST    0.73   1.52    4  145    7  69.4  66.0 1014.0 -9.9 -9.999 -99.9 -99.99 -9.99
2019/11/21 06:00 CST    0.73   1.49    4  142    6  69.6  66.2 1014.1 -9.9 -9.999 -99.9 -99.99 -9.99
2019/11/21 06:06 CST    0.72   1.45    4  163    6  69.6  66.2 1014.2 -9.9 -9.999 -99.9 -99.99 -9.99
2019/11/21 06:12 CST    0.72   1.48    4  166    6  69.8  66.2 1014.4 -9.9 -9.999 -99.9 -99.99 -9.99
2019/11/21 06:18 CST    0.72   1.37    3  162    5  70.0  66.2 1014.5 -9.9 -9.999 -99.9 -99.99 -9.99
2019/11/21 06:24 CST    0.72   1.38    3  150    5  70.2  66.2 1014.4 -9.9 -9.999 -99.9 -99.99 -9.99
2019/11/21 06:30 CST    0.72   1.58    4  139    7  70.0  66.2 1014.4 -9.9 -9.999 -99.9 -99.99 -9.99
2019/11/21 06:36 CST    0.72   1.45    4  138    7  69.6  66.2 1014.3 -9.9 -9.999 -99.9 -99.99 -9.99
2019/11/21 06:42 CST    0.72   1.48    4  140    7  69.4  66.2 1014.1 -9.9 -9.999 -99.9 -99.99 -9.99
2019/11/21 06:48 CST    0.72   1.40    2  158    8  69.4  66.2 1014.4 -9.9 -9.999 -99.9 -99.99 -9.99
2019/11/21 06:54 CST    0.72   1.52    4  146    7  69.8  66.2 1014.5 -9.9 -9.999 -99.9 -99.99 -9.99
2019/11/21 07:00 CST    0.72   1.46    5  142    8  69.6  66.2 1014.3 -9.9 -9.999 -99.9 -99.99 -9.99
2019/11/21 07:06 CST    0.72   1.54    4  132    9  69.4  66.2 1014.3 -9.9 -9.999 -99.9 -99.99 -9.99
2019/11/21 07:12 CST    0.73   1.56    4  142    7  69.6  66.2 1014.4 -9.9 -9.999 -99.9 -99.99 -9.99
2019/11/21 07:18 CST    0.73   1.56    4  148    9  69.8  66.2 1014.5 -9.9 -9.999 -99.9 -99.99 -9.99
2019/11/21 07:24 CST    0.73   1.58    5  138   10  69.8  66.2 1014.5 -9.9 -9.999 -99.9 -99.99 -9.99
2019/11/21 07:30 CST    0.73   1.57    6  141    9  70.2  66.2 1014.6 -9.9 -9.999 -99.9 -99.99 -9.99
2019/11/21 07:36 CST    0.74   1.57    4  141   10  70.5  66.2 1014.7 -9.9 -9.999 -99.9 -99.99 -9.99
2019/11/21 07:42 CST    0.74   1.57    6  146   10  70.7  66.2 1014.8 -9.9 -9.999 -99.9 -99.99 -9.99
2019/11/21 07:48 CST    0.74   1.59    5  147    8  71.1  66.2 1014.9 -9.9 -9.999 -99.9 -99.99 -9.99
2019/11/21 07:54 CST    0.75   1.59    4  154   10  71.2  66.2 1014.9 -9.9 -9.999 -99.9 -99.99 -9.99
2019/11/21 08:00 CST    0.75   1.62    4  151    9  71.4  66.2 1014.8 -9.9 -9.999 -99.9 -99.99 -9.99
2019/11/21 08:06 CST    0.75   1.63    6  140   10  71.4  66.2 1014.7 -9.9 -9.999 -99.9 -99.99 -9.99
2019/11/21 08:12 CST    0.76   1.69    4  139   10  71.2  66.2 1014.9 -9.9 -9.999 -99.9 -99.99 -9.99
2019/11/21 08:18 CST    0.76   1.66    3  136    7  71.2  66.2 1014.8 -9.9 -9.999 -99.9 -99.99 -9.99
2019/11/21 08:24 CST    0.76   1.59    5  131    9  71.2  66.2 1014.7 -9.9 -9.999 -99.9 -99.99 -9.99
2019/11/21 08:30 CST    0.77   1.59    6  136   10  71.8  66.2 1014.7 -9.9 -9.999 -99.9 -99.99 -9.99
2019/11/21 08:36 CST    0.77   1.60    6  146   10  72.3  66.2 1015.0 -9.9 -9.999 -99.9 -99.99 -9.99
2019/11/21 08:42 CST    0.78   1.60    5  153   10  72.7  66.2 1015.3 -9.9 -9.999 -99.9 -99.99 -9.99
2019/11/21 08:48 CST    0.78   1.60    4  144    9  72.9  66.2 1015.3 -9.9 -9.999 -99.9 -99.99 -9.99
2019/11/21 08:54 CST    0.78   1.63    6  156    9  73.0  66.2 1015.3 -9.9 -9.999 -99.9 -99.99 -9.99
2019/11/21 09:00 CST    0.79   1.63    7  141    9  73.0  66.2 1015.3 -9.9 -9.999 -99.9 -99.99 -9.99
2019/11/21 09:06 CST    0.79   1.63    5  139   11  73.2  66.2 1015.3 -9.9 -9.999 -99.9 -99.99 -9.99
2019/11/21 09:12 CST    0.79   1.62    6  152   10  73.2  66.2 1015.3 -9.9 -9.999 -99.9 -99.99 -9.99
2019/11/21 09:18 CST    0.79   1.60    5  150    8  73.4  66.2 1015.3 -9.9 -9.999 -99.9 -99.99 -9.99
2019/11/21 09:24 CST    0.79   1.60    5  140   11  73.0  66.2 1015.2 -9.9 -9.999 -99.9 -99.99 -9.99
2019/11/21 09:30 CST    0.79   1.59    7  142   11  72.9  66.2 1015.2 -9.9 -9.999 -99.9 -99.99 -9.99
2019/11/21 09:36 CST    0.79   1.62    5  145   11  73.4  66.2 1015.3 -9.9 -9.999 -99.9 -99.99 -9.99
2019/11/21 09:42 CST    0.79   1.62    4  162   11  73.4  66.2 1015.4 -9.9 -9.999 -99.9 -99.99 -9.99
2019/11/21 09:48 CST    0.79   1.60    6  157   11  73.4  66.2 1015.4 -9.9 -9.999 -99.9 -99.99 -9.99
2019/11/21 09:54 CST    0.79   1.61    7  151   12  73.0  66.2 1015.4 -9.9 -9.999 -99.9 -99.99 -9.99
2019/11/21 10:00 CST    0.78   1.61    6  155   12  73.4  66.2 1015.4 -9.9 -9.999 -99.9 -99.99 -9.99
2019/11/21 10:06 CST    0.78   1.56    8  162   12  73.4  66.2 1015.3 -9.9 -9.999 -99.9 -99.99 -9.99
2019/11/21 10:12 CST    0.77   1.55    9  149   13  73.4  66.2 1015.3 -9.9 -9.999 -99.9 -99.99 -9.99
2019/11/21 10:18 CST    0.77   1.55    7  148   12  73.8  66.2 1015.3 -9.9 -9.999 -99.9 -99.99 -9.99
2019/11/21 10:24 CST    0.76   1.53    8  159   13  74.1  66.2 1015.3 -9.9 -9.999 -99.9 -99.99 -9.99
2019/11/21 10:30 CST    0.76   1.52    8  160   13  74.3  66.2 1015.4 -9.9 -9.999 -99.9 -99.99 -9.99
2019/11/21 10:36 CST    0.75   1.54    7  156   12  74.5  66.2 1015.4 -9.9 -9.999 -99.9 -99.99 -9.99
2019/11/21 10:42 CST    0.75   1.55    8  150   12  74.8  66.2 1015.4 -9.9 -9.999 -99.9 -99.99 -9.99
2019/11/21 10:48 CST    0.74   1.56    6  156   12  74.7  66.2 1015.3 -9.9 -9.999 -99.9 -99.99 -9.99
2019/11/21 10:54 CST    0.73   1.58    8  150   13  74.7  66.2 1015.3 -9.9 -9.999 -99.9 -99.99 -9.99
2019/11/21 11:00 CST    0.73   1.60    6  161   10  75.4  66.2 1015.1 -9.9 -9.999 -99.9 -99.99 -9.99
2019/11/21 11:06 CST    0.72   1.57    7  153   12  75.6  66.2 1015.1 -9.9 -9.999 -99.9 -99.99 -9.99
2019/11/21 11:12 CST    0.71   1.56    8  157   13  75.7  66.2 1015.0 -9.9 -9.999 -99.9 -99.99 -9.99
2019/11/21 11:18 CST    0.70   1.56    7  157   12  75.9  66.2 1015.1 -9.9 -9.999 -99.9 -99.99 -9.99
2019/11/21 11:24 CST    0.70   1.58    9  166   15  75.9  66.2 1015.1 -9.9 -9.999 -99.9 -99.99 -9.99
2019/11/21 11:30 CST    0.69   1.55    8  157   12  76.1  66.2 1014.9 -9.9 -9.999 -99.9 -99.99 -9.99
2019/11/21 11:36 CST    0.68   1.57    8  153   14  75.9  66.2 1014.7 -9.9 -9.999 -99.9 -99.99 -9.99
2019/11/21 11:42 CST    0.67   1.58    8  161   12  75.9  66.2 1014.6 -9.9 -9.999 -99.9 -99.99 -9.99
2019/11/21 11:48 CST    0.66   1.59    6  151   12  75.9  66.2 1014.5 -9.9 -9.999 -99.9 -99.99 -9.99
2019/11/21 11:54 CST    0.65   1.55    9  153   13  75.7  66.2 1014.4 -9.9 -9.999 -99.9 -99.99 -9.99
2019/11/21 12:00 CST    0.64   1.56    6  143   12  75.7  66.2 1014.1 -9.9 -9.999 -99.9 -99.99 -9.99
2019/11/21 12:06 CST    0.64   1.56    8  136   13  75.7  66.2 1014.0 -9.9 -9.999 -99.9 -99.99 -9.99
2019/11/21 12:12 CST    0.63   1.55    7  140   11  75.9  66.2 1013.9 -9.9 -9.999 -99.9 -99.99 -9.99
2019/11/21 12:18 CST    0.62   1.55    7  136   12  76.3  66.2 1013.7 -9.9 -9.999 -99.9 -99.99 -9.99
2019/11/21 12:24 CST    0.61   1.55    9  129   12  75.9  66.4 1013.6 -9.9 -9.999 -99.9 -99.99 -9.99
2019/11/21 12:30 CST    0.60   1.54    7  136   12  75.9  66.4 1013.4 -9.9 -9.999 -99.9 -99.99 -9.99
2019/11/21 12:36 CST    0.59   1.52    8  141   12  75.4  66.4 1013.3 -9.9 -9.999 -99.9 -99.99 -9.99
2019/11/21 12:42 CST    0.57   1.51    6  133   14  75.2  66.4 1013.2 -9.9 -9.999 -99.9 -99.99 -9.99
2019/11/21 12:48 CST    0.56   1.52    6  134   11  74.8  66.4 1013.2 -9.9 -9.999 -99.9 -99.99 -9.99
2019/11/21 12:54 CST    0.55   1.52    6  135   10  75.7  66.4 1013.1 -9.9 -9.999 -99.9 -99.99 -9.99
2019/11/21 13:00 CST    0.54   1.52    5  139   11  76.3  66.4 1013.0 -9.9 -9.999 -99.9 -99.99 -9.99
2019/11/21 13:06 CST    0.53   1.54    8  139   13  76.3  66.4 1012.8 -9.9 -9.999 -99.9 -99.99 -9.99
2019/11/21 13:12 CST    0.52   1.51    7  136   13  76.1  66.4 1012.8 -9.9 -9.999 -99.9 -99.99 -9.99
2019/11/21 13:18 CST    0.51   1.48    7  130   12  76.1  66.4 1012.7 -9.9 -9.999 -99.9 -99.99 -9.99
2019/11/21 13:24 CST    0.50   1.43    6  132   11  76.5  66.4 1012.5 -9.9 -9.999 -99.9 -99.99 -9.99
2019/11/21 13:30 CST    0.49   1.42    8  133   13  76.3  66.4 1012.4 -9.9 -9.999 -99.9 -99.99 -9.99
2019/11/21 13:36 CST    0.48   1.41    7  137   13  76.6  66.4 1012.4 -9.9 -9.999 -99.9 -99.99 -9.99
2019/11/21 13:42 CST    0.47   1.42    8  130   12  76.1  66.4 1012.3 -9.9 -9.999 -99.9 -99.99 -9.99
2019/11/21 13:48 CST    0.46   1.43    4  134   11  76.5  66.4 1012.3 -9.9 -9.999 -99.9 -99.99 -9.99
2019/11/21 13:54 CST    0.45   1.44    8  136   13  76.1  66.4 1012.3 -9.9 -9.999 -99.9 -99.99 -9.99
2019/11/21 14:00 CST    0.44   1.42    8  140   13  76.1  66.4 1012.3 -9.9 -9.999 -99.9 -99.99 -9.99
2019/11/21 14:06 CST    0.43   1.40    6  139   11  76.5  66.6 1012.3 -9.9 -9.999 -99.9 -99.99 -9.99
2019/11/21 14:12 CST    0.42   1.36    8  137   12  76.1  66.6 1012.3 -9.9 -9.999 -99.9 -99.99 -9.99
2019/11/21 14:18 CST    0.42   1.33    7  139   12  76.1  66.6 1012.3 -9.9 -9.999 -99.9 -99.99 -9.99
2019/11/21 14:24 CST    0.41   1.30    6  140   12  76.1  66.6 1012.3 -9.9 -9.999 -99.9 -99.99 -9.99
2019/11/21 14:30 CST    0.40   1.32    8  144   12  75.7  66.6 1012.2 -9.9 -9.999 -99.9 -99.99 -9.99
2019/11/21 14:36 CST    0.40   1.32    6  139   10  75.7  66.6 1012.2 -9.9 -9.999 -99.9 -99.99 -9.99
2019/11/21 14:42 CST    0.39   1.33    8  143   11  75.6  66.6 1012.2 -9.9 -9.999 -99.9 -99.99 -9.99
2019/11/21 14:48 CST    0.38   1.33    6  142   11  76.1  66.6 1012.3 -9.9 -9.999 -99.9 -99.99 -9.99
2019/11/21 14:54 CST    0.38   1.31    7  146   13  76.1  66.7 1012.3 -9.9 -9.999 -99.9 -99.99 -9.99
2019/11/21 15:00 CST    0.37   1.28    5  152   11  76.5  66.7 1012.4 -9.9 -9.999 -99.9 -99.99 -9.99
2019/11/21 15:06 CST    0.37   1.28    7  141   14  75.9  66.7 1012.4 -9.9 -9.999 -99.9 -99.99 -9.99
2019/11/21 15:12 CST    0.37   1.28   10  143   13  75.4  66.7 1012.3 -9.9 -9.999 -99.9 -99.99 -9.99
2019/11/21 15:18 CST    0.36   1.30    6  141   14  75.4  66.7 1012.4 -9.9 -9.999 -99.9 -99.99 -9.99
2019/11/21 15:24 CST    0.36   1.32    8  140   12  75.0  66.7 1012.5 -9.9 -9.999 -99.9 -99.99 -9.99
2019/11/21 15:30 CST    0.36   1.33    6  134   12  74.7  66.9 1012.6 -9.9 -9.999 -99.9 -99.99 -9.99
2019/11/21 15:36 CST    0.35   1.32    7  138   11  74.7  66.9 1012.6 -9.9 -9.999 -99.9 -99.99 -9.99
2019/11/21 15:42 CST    0.35   1.30    6  136   10  74.5  66.9 1012.7 -9.9 -9.999 -99.9 -99.99 -9.99
2019/11/21 15:48 CST    0.35   1.26    6  141   12  74.1  66.9 1012.7 -9.9 -9.999 -99.9 -99.99 -9.99
2019/11/21 15:54 CST    0.34   1.25    7  143   11  73.9  66.9 1012.6 -9.9 -9.999 -99.9 -99.99 -9.99
2019/11/21 16:00 CST    0.34   1.23    6  138   11  73.8  66.9 1012.6 -9.9 -9.999 -99.9 -99.99 -9.99
2019/11/21 16:06 CST    0.34   1.23    7  136   13  73.6  67.1 1012.7 -9.9 -9.999 -99.9 -99.99 -9.99
2019/11/21 16:12 CST    0.34   1.06    7  135   11  73.6  67.1 1012.7 -9.9 -9.999 -99.9 -99.99 -9.99
2019/11/21 16:18 CST    0.33   1.30    8  136   12  73.4  67.1 1012.5 -9.9 -9.999 -99.9 -99.99 -9.99
2019/11/21 16:24 CST    0.33   1.20    8  134   12  73.4  67.1 1012.6 -9.9 -9.999 -99.9 -99.99 -9.99
2019/11/21 16:30 CST    0.33   1.23    7  132   11  73.6  67.1 1012.6 -9.9 -9.999 -99.9 -99.99 -9.99
2019/11/21 16:36 CST    0.33   1.22    6  137   12  73.8  67.1 1012.7 -9.9 -9.999 -99.9 -99.99 -9.99
2019/11/21 16:42 CST    0.33   1.21    7  124   11  73.9  67.1 1012.6 -9.9 -9.999 -99.9 -99.99 -9.99
2019/11/21 16:48 CST    0.33   1.22    9  129   12  73.8  67.3 1012.7 -9.9 -9.999 -99.9 -99.99 -9.99
2019/11/21 16:54 CST    0.33   1.25    7  131   12  73.6  67.3 1012.8 -9.9 -9.999 -99.9 -99.99 -9.99
2019/11/21 17:00 CST    0.33   1.27    6  127   12  73.4  67.3 1012.8 -9.9 -9.999 -99.9 -99.99 -9.99
2019/11/21 17:06 CST    0.33   1.30    8  134   13  73.4  67.3 1012.7 -9.9 -9.999 -99.9 -99.99 -9.99
2019/11/21 17:12 CST    0.33   1.34    7  138   11  73.0  67.3 1012.9 -9.9 -9.999 -99.9 -99.99 -9.99
2019/11/21 17:18 CST    0.33   1.29    7  134   11  72.9  67.3 1012.9 -9.9 -9.999 -99.9 -99.99 -9.99
2019/11/21 17:24 CST    0.33   1.26    8  133   13  72.7  67.3 1012.9 -9.9 -9.999 -99.9 -99.99 -9.99
2019/11/21 17:30 CST    0.33   1.27    8  132   12  72.7  67.3 1012.7 -9.9 -9.999 -99.9 -99.99 -9.99
2019/11/21 17:36 CST    0.34   1.28    6  140   12  72.5  67.3 1012.7 -9.9 -9.999 -99.9 -99.99 -9.99
2019/11/21 17:42 CST    0.34   1.24    7  139   12  72.5  67.3 1012.8 -9.9 -9.999 -99.9 -99.99 -9.99
2019/11/21 17:48 CST    0.35   1.24    6  137   10  72.5  67.3 1012.8 -9.9 -9.999 -99.9 -99.99 -9.99
2019/11/21 17:54 CST    0.35   1.33    5  140   10  72.5  67.3 1012.9 -9.9 -9.999 -99.9 -99.99 -9.99
2019/11/21 18:00 CST    0.36   1.30    5  142   11  72.5  67.3 1013.0 -9.9 -9.999 -99.9 -99.99 -9.99
2019/11/21 18:06 CST    0.36   1.34    6  145   11  72.5  67.3 1013.1 -9.9 -9.999 -99.9 -99.99 -9.99
2019/11/21 18:12 CST    0.37   1.32    5  147   11  72.3  67.3 1013.1 -9.9 -9.999 -99.9 -99.99 -9.99
2019/11/21 18:18 CST    0.38   1.39    6  139   10  72.1  67.3 1013.0 -9.9 -9.999 -99.9 -99.99 -9.99
2019/11/21 18:24 CST    0.39   1.38    5  141    9  72.0  67.3 1013.1 -9.9 -9.999 -99.9 -99.99 -9.99
2019/11/21 18:30 CST    0.39   1.37    6  136   11  72.0  67.3 1013.0 -9.9 -9.999 -99.9 -99.99 -9.99
2019/11/21 18:36 CST    0.40   1.38    6  140   11  72.0  67.3 1013.1 -9.9 -9.999 -99.9 -99.99 -9.99
2019/11/21 18:42 CST    0.41   1.36    6  143   12  72.0  67.3 1013.3 -9.9 -9.999 -99.9 -99.99 -9.99
2019/11/21 18:48 CST    0.42   1.34    4  138    9  71.8  67.3 1013.4 -9.9 -9.999 -99.9 -99.99 -9.99
2019/11/21 18:54 CST    0.43   1.36    4  138    7  71.6  67.3 1013.6 -9.9 -9.999 -99.9 -99.99 -9.99
2019/11/21 19:00 CST    0.45   1.40    5  129    7  71.2  67.3 1013.6 -9.9 -9.999 -99.9 -99.99 -9.99
2019/11/21 19:06 CST    0.46   1.41    5  133    7  71.2  67.3 1013.5 -9.9 -9.999 -99.9 -99.99 -9.99
2019/11/21 19:12 CST    0.47   1.44    5  134    9  71.2  67.3 1013.4 -9.9 -9.999 -99.9 -99.99 -9.99
2019/11/21 19:18 CST    0.48   1.46    4  138    8  71.2  67.3 1013.5 -9.9 -9.999 -99.9 -99.99 -9.99
2019/11/21 19:24 CST    0.49   1.47    5  132    7  71.2  67.3 1013.7 -9.9 -9.999 -99.9 -99.99 -9.99
2019/11/21 19:30 CST    0.51   1.44    5  132    8  71.2  67.3 1013.6 -9.9 -9.999 -99.9 -99.99 -9.99
2019/11/21 19:36 CST    0.52   1.41    6  128    9  71.1  67.3 1013.5 -9.9 -9.999 -99.9 -99.99 -9.99
2019/11/21 19:42 CST    0.53   1.40    7  130   10  71.2  67.3 1013.3 -9.9 -9.999 -99.9 -99.99 -9.99
2019/11/21 19:48 CST    0.55   1.41    7  139   11  71.2  67.3 1013.2 -9.9 -9.999 -99.9 -99.99 -9.99
2019/11/21 19:54 CST    0.56   1.43    7  138   12  71.2  67.3 1013.2 -9.9 -9.999 -99.9 -99.99 -9.99
2019/11/21 20:00 CST    0.57   1.46    6  137   12  71.2  67.3 1013.3 -9.9 -9.999 -99.9 -99.99 -9.99
2019/11/21 20:06 CST    0.59   1.51    7  141   12  71.2  67.3 1013.4 -9.9 -9.999 -99.9 -99.99 -9.99
2019/11/21 20:12 CST    0.60   1.57    7  138   11  71.4  67.3 1013.5 -9.9 -9.999 -99.9 -99.99 -9.99
2019/11/21 20:18 CST    0.62   1.56    6  142   11  71.4  67.3 1013.4 -9.9 -9.999 -99.9 -99.99 -9.99
2019/11/21 20:24 CST    0.63   1.56    5  143   12  71.4  67.3 1013.5 -9.9 -9.999 -99.9 -99.99 -9.99
2019/11/21 20:30 CST    0.64   1.57    7  148   14  71.4  67.3 1013.5 -9.9 -9.999 -99.9 -99.99 -9.99
2019/11/21 20:36 CST    0.66   1.55    6  149   10  71.4  67.3 1013.5 -9.9 -9.999 -99.9 -99.99 -9.99
2019/11/21 20:42 CST    0.67   1.55    6  145   12  71.4  67.3 1013.5 -9.9 -9.999 -99.9 -99.99 -9.99
2019/11/21 20:48 CST    0.69   1.60    7  144   11  71.4  67.3 1013.5 -9.9 -9.999 -99.9 -99.99 -9.99
2019/11/21 20:54 CST    0.70   1.62    7  141   12  71.6  67.3 1013.4 -9.9 -9.999 -99.9 -99.99 -9.99
2019/11/21 21:00 CST    0.71   1.63    7  151   14  71.6  67.3 1013.4 -9.9 -9.999 -99.9 -99.99 -9.99
2019/11/21 21:06 CST    0.72   1.66    7  147   12  71.6  67.3 1013.5 -9.9 -9.999 -99.9 -99.99 -9.99
2019/11/21 21:12 CST    0.74   1.67    5  155   11  71.4  67.3 1013.7 -9.9 -9.999 -99.9 -99.99 -9.99
2019/11/21 21:18 CST    0.75   1.66    7  152   10  71.4  67.3 1013.7 -9.9 -9.999 -99.9 -99.99 -9.99
2019/11/21 21:24 CST    0.76   1.67    5  152   10  71.2  67.3 1013.6 -9.9 -9.999 -99.9 -99.99 -9.99
2019/11/21 21:30 CST    0.77   1.68    6  145   13  71.2  67.3 1013.5 -9.9 -9.999 -99.9 -99.99 -9.99
2019/11/21 21:36 CST    0.78   1.69    6  149   12  71.2  67.3 1013.3 -9.9 -9.999 -99.9 -99.99 -9.99
2019/11/21 21:42 CST    0.79   1.68    6  142   12  71.2  67.3 1013.2 -9.9 -9.999 -99.9 -99.99 -9.99
2019/11/21 21:48 CST    0.80   1.71    7  151   11  71.2  67.3 1013.3 -9.9 -9.999 -99.9 -99.99 -9.99
2019/11/21 21:54 CST    0.80   1.76    7  151   11  71.2  67.3 1013.3 -9.9 -9.999 -99.9 -99.99 -9.99
2019/11/21 22:00 CST    0.81   1.74    5  152   15  71.2  67.3 1013.5 -9.9 -9.999 -99.9 -99.99 -9.99
2019/11/21 22:06 CST    0.82   1.72    4  160    8  71.1  67.3 1013.7 -9.9 -9.999 -99.9 -99.99 -9.99
2019/11/21 22:12 CST    0.82   1.73    7  137   11  70.7  67.3 1013.2 -9.9 -9.999 -99.9 -99.99 -9.99
2019/11/21 22:18 CST    0.83   1.74    7  147   11  70.7  67.3 1013.2 -9.9 -9.999 -99.9 -99.99 -9.99
2019/11/21 22:24 CST    0.83   1.74    5  154   12  70.7  67.3 1013.3 -9.9 -9.999 -99.9 -99.99 -9.99
2019/11/21 22:30 CST    0.83   1.78    6  152   10  70.9  67.3 1013.3 -9.9 -9.999 -99.9 -99.99 -9.99
2019/11/21 22:36 CST    0.83   1.80    9  144   13  70.9  67.3 1013.0 -9.9 -9.999 -99.9 -99.99 -9.99
2019/11/21 22:42 CST    0.84   1.72    8  141   13  71.1  67.3 1012.8 -9.9 -9.999 -99.9 -99.99 -9.99
2019/11/21 22:48 CST    0.84   1.70    9  139   16  71.1  67.3 1012.6 -9.9 -9.999 -99.9 -99.99 -9.99
2019/11/21 22:54 CST    0.84   1.80    8  139   15  71.2  67.3 1012.5 -9.9 -9.999 -99.9 -99.99 -9.99
2019/11/21 23:00 CST    0.84   1.77    8  143   15  71.2  67.3 1012.6 -9.9 -9.999 -99.9 -99.99 -9.99
2019/11/21 23:06 CST    0.84   1.81    6  158   13  71.2  67.3 1013.2 -9.9 -9.999 -99.9 -99.99 -9.99
2019/11/21 23:12 CST    0.84   1.75    4  181   11  71.2  67.3 1013.7 -9.9 -9.999 -99.9 -99.99 -9.99
2019/11/21 23:18 CST    0.83   1.83    5  180    7  71.2  67.3 1014.0 -9.9 -9.999 -99.9 -99.99 -9.99
2019/11/21 23:24 CST    0.83   1.77    5  181    7  71.4  67.3 1014.3 -9.9 -9.999 -99.9 -99.99 -9.99
2019/11/21 23:30 CST    0.83   1.79    4  204    6  71.2  67.1 1014.5 -9.9 -9.999 -99.9 -99.99 -9.99
2019/11/21 23:36 CST    0.83   1.85    4  218    5  71.1  67.1 1014.9 -9.9 -9.999 -99.9 -99.99 -9.99
2019/11/21 23:42 CST    0.83   1.64    2  224    4  70.9  67.1 1015.0 -9.9 -9.999 -99.9 -99.99 -9.99
2019/11/21 23:48 CST    0.82   1.62    2  194    3  70.9  67.1 1014.8 -9.9 -9.999 -99.9 -99.99 -9.99
2019/11/21 23:54 CST    0.82   1.75    2  211    4  70.9  66.9 1014.8 -9.9 -9.999 -99.9 -99.99 -9.99
2019/11/22 00:00 CST    0.82   1.74    3  184    4  70.9  66.9 1014.5 -9.9 -9.999 -99.9 -99.99 -9.99
2019/11/22 00:06 CST    0.81   1.77    3  190    4  70.9  66.9 1014.4 -9.9 -9.999 -99.9 -99.99 -9.99
2019/11/22 00:12 CST    0.81   1.77    3  143    4  70.7  66.9 1014.0 -9.9 -9.999 -99.9 -99.99 -9.99
2019/11/22 00:18 CST    0.81   1.75    3  145    5  70.7  66.9 1013.8 -9.9 -9.999 -99.9 -99.99 -9.99
2019/11/22 00:24 CST    0.80   1.76    4  144    6  70.7  66.9 1013.7 -9.9 -9.999 -99.9 -99.99 -9.99
2019/11/22 00:30 CST    0.80   1.78    4  132    7  70.3  66.7 1013.5 -9.9 -9.999 -99.9 -99.99 -9.99
2019/11/22 00:36 CST    0.80   1.75    6  130    7  70.2  66.7 1013.2 -9.9 -9.999 -99.9 -99.99 -9.99
2019/11/22 00:42 CST    0.79   1.77    7  130   11  70.2  66.7 1012.9 -9.9 -9.999 -99.9 -99.99 -9.99
2019/11/22 00:48 CST    0.79   1.74    6  147   11  70.2  66.7 1013.0 -9.9 -9.999 -99.9 -99.99 -9.99
2019/11/22 00:54 CST    0.78   1.73    8  131   13  70.0  66.7 1012.3 -9.9 -9.999 -99.9 -99.99 -9.99
2019/11/22 01:00 CST    0.78   1.71   10  129   15  70.0  66.7 1011.9 -9.9 -9.999 -99.9 -99.99 -9.99
2019/11/22 01:06 CST    0.77   1.70    7  149   14  70.2  66.7 1012.4 -9.9 -9.999 -99.9 -99.99 -9.99
2019/11/22 01:12 CST    0.77   1.71    7  153   12  70.3  66.7 1012.5 -9.9 -9.999 -99.9 -99.99 -9.99
2019/11/22 01:18 CST    0.76   1.72    8  139   13  70.2  66.7 1012.2 -9.9 -9.999 -99.9 -99.99 -9.99
2019/11/22 01:24 CST    0.75   1.69    6  160   11  70.3  66.6 1012.8 -9.9 -9.999 -99.9 -99.99 -9.99
2019/11/22 01:30 CST    0.75   1.67    7  146   11  70.3  66.6 1012.6 -9.9 -9.999 -99.9 -99.99 -9.99
2019/11/22 01:36 CST    0.74   1.68    4  143   10  70.3  66.6 1012.8 -9.9 -9.999 -99.9 -99.99 -9.99
2019/11/22 01:42 CST    0.74   1.70    4  166    9  70.5  66.6 1012.8 -9.9 -9.999 -99.9 -99.99 -9.99
2019/11/22 01:48 CST    0.73   1.71    4  151    7  70.5  66.6 1012.7 -9.9 -9.999 -99.9 -99.99 -9.99
2019/11/22 01:54 CST    0.72   1.68    4  157    8  70.5  66.6 1012.7 -9.9 -9.999 -99.9 -99.99 -9.99
2019/11/22 02:00 CST    0.72   1.65    3  172    8  70.3  66.6 1012.7 -9.9 -9.999 -99.9 -99.99 -9.99
2019/11/22 02:06 CST    0.71   1.63    5  176    7  70.5  66.6 1012.8 -9.9 -9.999 -99.9 -99.99 -9.99
2019/11/22 02:12 CST    0.71   1.61    6  169    7  70.5  66.6 1012.6 -9.9 -9.999 -99.9 -99.99 -9.99
2019/11/22 02:18 CST    0.70   1.60    4  178    9  70.3  66.6 1012.7 -9.9 -9.999 -99.9 -99.99 -9.99
2019/11/22 02:24 CST    0.70   1.62    4  194    6  70.3  66.6 1012.8 -9.9 -9.999 -99.9 -99.99 -9.99
2019/11/22 02:30 CST    0.69   1.62    4  178    7  70.3  66.6 1012.7 -9.9 -9.999 -99.9 -99.99 -9.99
2019/11/22 02:36 CST    0.69   1.61    7  170   10  70.3  66.6 1012.5 -9.9 -9.999 -99.9 -99.99 -9.99
2019/11/22 02:42 CST    0.68   1.62    6  167   10  70.3  66.6 1012.5 -9.9 -9.999 -99.9 -99.99 -9.99
2019/11/22 02:48 CST    0.68   1.62    4  164    9  70.2  66.4 1012.4 -9.9 -9.999 -99.9 -99.99 -9.99
2019/11/22 02:54 CST    0.67   1.64    5  152    9  70.2  66.4 1012.2 -9.9 -9.999 -99.9 -99.99 -9.99
2019/11/22 03:00 CST    0.67   1.64    6  144   11  70.0  66.4 1012.1 -9.9 -9.999 -99.9 -99.99 -9.99
2019/11/22 03:06 CST    0.67   1.66    4  134    9  69.8  66.4 1011.9 -9.9 -9.999 -99.9 -99.99 -9.99
2019/11/22 03:12 CST    0.66   1.64    6  127    9  69.6  66.4 1011.6 -9.9 -9.999 -99.9 -99.99 -9.99
2019/11/22 03:18 CST    0.66   1.68    4  136    9  69.6  66.4 1011.9 -9.9 -9.999 -99.9 -99.99 -9.99
2019/11/22 03:24 CST    0.66   1.58    3  140    6  69.6  66.4 1012.1 -9.9 -9.999 -99.9 -99.99 -9.99
2019/11/22 03:30 CST    0.65   1.69    4  145    6  69.8  66.4 1012.1 -9.9 -9.999 -99.9 -99.99 -9.99
2019/11/22 03:36 CST    0.65   1.62    5  123    7  69.8  66.4 1012.0 -9.9 -9.999 -99.9 -99.99 -9.99
2019/11/22 03:42 CST    0.65   1.64    4  137    5  69.8  66.4 1012.1 -9.9 -9.999 -99.9 -99.99 -9.99
2019/11/22 03:48 CST    0.64   1.64    4  178    6  70.0  66.4 1012.6 -9.9 -9.999 -99.9 -99.99 -9.99
2019/11/22 03:54 CST    0.64   1.63    3  178    6  70.0  66.4 1012.6 -9.9 -9.999 -99.9 -99.99 -9.99
2019/11/22 04:00 CST    0.63   1.59    4  185    5  70.2  66.4 1012.6 -9.9 -9.999 -99.9 -99.99 -9.99
2019/11/22 04:06 CST    0.63   1.60    3  185    6  70.0  66.4 1012.6 -9.9 -9.999 -99.9 -99.99 -9.99
2019/11/22 04:12 CST    0.63   1.62    4  163    7  70.0  66.4 1012.5 -9.9 -9.999 -99.9 -99.99 -9.99
2019/11/22 04:18 CST    0.62   1.62    4  173    5  69.8  66.4 1012.6 -9.9 -9.999 -99.9 -99.99 -9.99
2019/11/22 04:24 CST    0.62   1.64    3  165    5  69.6  66.4 1012.7 -9.9 -9.999 -99.9 -99.99 -9.99
2019/11/22 04:30 CST    0.61   1.61    2  171    5  69.6  66.4 1012.6 -9.9 -9.999 -99.9 -99.99 -9.99
2019/11/22 04:36 CST    0.61   1.61    2  177    4  69.4  66.4 1012.7 -9.9 -9.999 -99.9 -99.99 -9.99
2019/11/22 04:42 CST    0.60   1.60    3  164    4  69.4  66.4 1012.6 -9.9 -9.999 -99.9 -99.99 -9.99
2019/11/22 04:48 CST    0.60   1.57    2  165    4  69.4  66.4 1012.6 -9.9 -9.999 -99.9 -99.99 -9.99
2019/11/22 04:54 CST    0.59   1.55    2  174    4  69.3  66.4 1012.6 -9.9 -9.999 -99.9 -99.99 -9.99
2019/11/22 05:00 CST    0.59   1.56    3  175    4  69.3  66.4 1012.6 -9.9 -9.999 -99.9 -99.99 -9.99
2019/11/22 05:06 CST    0.58   1.54    2  168    4  69.3  66.4 1012.7 -9.9 -9.999 -99.9 -99.99 -9.99
2019/11/22 05:12 CST    0.57   1.55    2  175    3  69.1  66.4 1012.7 -9.9 -9.999 -99.9 -99.99 -9.99
2019/11/22 05:18 CST    0.57   1.56    1  165    2  69.1  66.4 1012.8 -9.9 -9.999 -99.9 -99.99 -9.99
2019/11/22 05:24 CST    0.56   1.52    2  141    4  69.1  66.4 1012.6 -9.9 -9.999 -99.9 -99.99 -9.99
2019/11/22 05:30 CST    0.56   1.53    2  129    5  69.1  66.4 1012.5 -9.9 -9.999 -99.9 -99.99 -9.99
2019/11/22 05:36 CST    0.56   1.53    2  145    4  68.9  66.4 1012.6 -9.9 -9.999 -99.9 -99.99 -9.99
2019/11/22 05:42 CST    0.55   1.51    2  152    5  69.1  66.4 1012.7 -9.9 -9.999 -99.9 -99.99 -9.99
2019/11/22 05:48 CST    0.55   1.50    2  180    3  69.1  66.4 1013.0 -9.9 -9.999 -99.9 -99.99 -9.99
2019/11/22 05:54 CST    0.55   1.47    2  173    3  69.1  66.4 1013.1 -9.9 -9.999 -99.9 -99.99 -9.99
2019/11/22 06:00 CST    0.54   1.46    2  173    2  69.1  66.4 1013.2 -9.9 -9.999 -99.9 -99.99 -9.99
2019/11/22 06:06 CST    0.54   1.43    1  159    3  69.3  66.4 1013.2 -9.9 -9.999 -99.9 -99.99 -9.99
2019/11/22 06:12 CST    0.54   1.42    2  161    3  69.4  66.4 1013.2 -9.9 -9.999 -99.9 -99.99 -9.99
2019/11/22 06:18 CST    0.54   1.42    3  168    4  69.4  66.4 1013.2 -9.9 -9.999 -99.9 -99.99 -9.99
2019/11/22 06:24 CST    0.54   1.43    3  158    6  69.6  66.4 1013.1 -9.9 -9.999 -99.9 -99.99 -9.99
2019/11/22 06:30 CST    0.54 -99.99 -999 -999 -999 -99.9 -99.9 -999.9 -9.9 -9.999 -99.9 -99.99 -9.99
2019/11/22 06:36 CST    0.54 -99.99 -999 -999 -999 -99.9 -99.9 -999.9 -9.9 -9.999 -99.9 -99.99 -9.99
2019/11/22 06:42 CST    0.54 -99.99 -999 -999 -999 -99.9 -99.9 -999.9 -9.9 -9.999 -99.9 -99.99 -9.99